<?xml version="1.0" encoding="UTF-8" standalone="no" ?>
<gpx xmlns="http://www.topografix.com/GPX/1/1" xmlns:xsi="http://www.w3.org/2001/XMLSchema-instance" xsi:schemaLocation="http://www.topografix.com/GPX/1/1 http://www.topografix.com/GPX/1/1/gpx.xsd" version="1.1" creator="VisuGPX - https://www.visugpx.com">
  <metadata>
    <name>randonnÃ©e des eoliennes flaba et maisoncelle</name>
    <desc><![CDATA[marche des éoliennes flaba et maisoncelle plus le lavoir]]></desc>
  </metadata>
  <trk>
    <name><![CDATA[Tracé actuel: 20 AOU 2018 08:17]]></name>
    <trkseg>
      <trkpt lat="49.63455" lon="4.9803">
        <ele>167.41</ele>
        <time>2018-08-20T06:17:00Z</time>
      </trkpt>
      <trkpt lat="49.63457" lon="4.98041">
        <ele>175.1</ele>
        <time>2018-08-20T06:17:22Z</time>
      </trkpt>
      <trkpt lat="49.63456" lon="4.98048">
        <ele>176.06</ele>
        <time>2018-08-20T06:17:34Z</time>
      </trkpt>
      <trkpt lat="49.63465" lon="4.98071">
        <ele>180.38</ele>
        <time>2018-08-20T06:17:52Z</time>
      </trkpt>
      <trkpt lat="49.63465" lon="4.98073">
        <ele>180.38</ele>
        <time>2018-08-20T06:17:53Z</time>
      </trkpt>
      <trkpt lat="49.63467" lon="4.98082">
        <ele>180.87</ele>
        <time>2018-08-20T06:18:02Z</time>
      </trkpt>
      <trkpt lat="49.63469" lon="4.98088">
        <ele>181.35</ele>
        <time>2018-08-20T06:18:07Z</time>
      </trkpt>
      <trkpt lat="49.63479" lon="4.98106">
        <ele>181.83</ele>
        <time>2018-08-20T06:18:24Z</time>
      </trkpt>
      <trkpt lat="49.63488" lon="4.98126">
        <ele>182.31</ele>
        <time>2018-08-20T06:18:40Z</time>
      </trkpt>
      <trkpt lat="49.63489" lon="4.98128">
        <ele>182.31</ele>
        <time>2018-08-20T06:18:42Z</time>
      </trkpt>
      <trkpt lat="49.6349" lon="4.98147">
        <ele>180.87</ele>
        <time>2018-08-20T06:18:55Z</time>
      </trkpt>
      <trkpt lat="49.63479" lon="4.98167">
        <ele>179.42</ele>
        <time>2018-08-20T06:19:12Z</time>
      </trkpt>
      <trkpt lat="49.63473" lon="4.9819">
        <ele>179.9</ele>
        <time>2018-08-20T06:19:28Z</time>
      </trkpt>
      <trkpt lat="49.63466" lon="4.98211">
        <ele>182.79</ele>
        <time>2018-08-20T06:19:45Z</time>
      </trkpt>
      <trkpt lat="49.63457" lon="4.98235">
        <ele>187.11</ele>
        <time>2018-08-20T06:20:00Z</time>
      </trkpt>
      <trkpt lat="49.63445" lon="4.98253">
        <ele>190</ele>
        <time>2018-08-20T06:20:15Z</time>
      </trkpt>
      <trkpt lat="49.63432" lon="4.98267">
        <ele>190.96</ele>
        <time>2018-08-20T06:20:32Z</time>
      </trkpt>
      <trkpt lat="49.63431" lon="4.98268">
        <ele>190.96</ele>
        <time>2018-08-20T06:20:34Z</time>
      </trkpt>
      <trkpt lat="49.6342" lon="4.9828">
        <ele>192.4</ele>
        <time>2018-08-20T06:20:49Z</time>
      </trkpt>
      <trkpt lat="49.63412" lon="4.9829">
        <ele>193.84</ele>
        <time>2018-08-20T06:21:09Z</time>
      </trkpt>
      <trkpt lat="49.634" lon="4.98307">
        <ele>195.28</ele>
        <time>2018-08-20T06:21:27Z</time>
      </trkpt>
      <trkpt lat="49.63392" lon="4.98314">
        <ele>195.28</ele>
        <time>2018-08-20T06:21:37Z</time>
      </trkpt>
      <trkpt lat="49.63377" lon="4.98322">
        <ele>193.36</ele>
        <time>2018-08-20T06:21:53Z</time>
      </trkpt>
      <trkpt lat="49.63362" lon="4.98335">
        <ele>198.65</ele>
        <time>2018-08-20T06:22:08Z</time>
      </trkpt>
      <trkpt lat="49.63349" lon="4.98343">
        <ele>201.53</ele>
        <time>2018-08-20T06:22:23Z</time>
      </trkpt>
      <trkpt lat="49.63335" lon="4.98349">
        <ele>202.49</ele>
        <time>2018-08-20T06:22:36Z</time>
      </trkpt>
      <trkpt lat="49.6332" lon="4.98352">
        <ele>199.61</ele>
        <time>2018-08-20T06:22:51Z</time>
      </trkpt>
      <trkpt lat="49.63308" lon="4.98351">
        <ele>197.21</ele>
        <time>2018-08-20T06:23:07Z</time>
      </trkpt>
      <trkpt lat="49.63296" lon="4.98354">
        <ele>197.69</ele>
        <time>2018-08-20T06:23:20Z</time>
      </trkpt>
      <trkpt lat="49.6328" lon="4.9835">
        <ele>202.98</ele>
        <time>2018-08-20T06:23:34Z</time>
      </trkpt>
      <trkpt lat="49.63263" lon="4.9835">
        <ele>202.01</ele>
        <time>2018-08-20T06:23:49Z</time>
      </trkpt>
      <trkpt lat="49.63255" lon="4.9835">
        <ele>201.05</ele>
        <time>2018-08-20T06:23:57Z</time>
      </trkpt>
      <trkpt lat="49.63239" lon="4.98351">
        <ele>202.49</ele>
        <time>2018-08-20T06:24:13Z</time>
      </trkpt>
      <trkpt lat="49.63226" lon="4.98342">
        <ele>205.86</ele>
        <time>2018-08-20T06:24:28Z</time>
      </trkpt>
      <trkpt lat="49.63225" lon="4.98341">
        <ele>206.34</ele>
        <time>2018-08-20T06:24:30Z</time>
      </trkpt>
      <trkpt lat="49.63223" lon="4.9834">
        <ele>206.34</ele>
        <time>2018-08-20T06:24:33Z</time>
      </trkpt>
      <trkpt lat="49.63215" lon="4.98338">
        <ele>206.82</ele>
        <time>2018-08-20T06:24:40Z</time>
      </trkpt>
      <trkpt lat="49.63199" lon="4.98336">
        <ele>212.59</ele>
        <time>2018-08-20T06:24:54Z</time>
      </trkpt>
      <trkpt lat="49.63177" lon="4.98327">
        <ele>217.4</ele>
        <time>2018-08-20T06:25:10Z</time>
      </trkpt>
      <trkpt lat="49.63161" lon="4.9832">
        <ele>222.2</ele>
        <time>2018-08-20T06:25:23Z</time>
      </trkpt>
      <trkpt lat="49.63149" lon="4.98322">
        <ele>224.12</ele>
        <time>2018-08-20T06:25:35Z</time>
      </trkpt>
      <trkpt lat="49.63144" lon="4.98324">
        <ele>223.64</ele>
        <time>2018-08-20T06:25:40Z</time>
      </trkpt>
      <trkpt lat="49.63127" lon="4.9832">
        <ele>228.45</ele>
        <time>2018-08-20T06:25:55Z</time>
      </trkpt>
      <trkpt lat="49.63111" lon="4.9832">
        <ele>234.22</ele>
        <time>2018-08-20T06:26:09Z</time>
      </trkpt>
      <trkpt lat="49.63094" lon="4.98317">
        <ele>239.99</ele>
        <time>2018-08-20T06:26:24Z</time>
      </trkpt>
      <trkpt lat="49.63077" lon="4.98309">
        <ele>244.79</ele>
        <time>2018-08-20T06:26:38Z</time>
      </trkpt>
      <trkpt lat="49.63063" lon="4.98306">
        <ele>246.23</ele>
        <time>2018-08-20T06:26:50Z</time>
      </trkpt>
      <trkpt lat="49.63051" lon="4.9831">
        <ele>243.83</ele>
        <time>2018-08-20T06:27:03Z</time>
      </trkpt>
      <trkpt lat="49.6304" lon="4.98314">
        <ele>238.06</ele>
        <time>2018-08-20T06:27:17Z</time>
      </trkpt>
      <trkpt lat="49.63028" lon="4.9831">
        <ele>239.02</ele>
        <time>2018-08-20T06:27:30Z</time>
      </trkpt>
      <trkpt lat="49.63013" lon="4.98305">
        <ele>241.91</ele>
        <time>2018-08-20T06:27:44Z</time>
      </trkpt>
      <trkpt lat="49.62996" lon="4.98305">
        <ele>245.27</ele>
        <time>2018-08-20T06:27:59Z</time>
      </trkpt>
      <trkpt lat="49.62983" lon="4.98303">
        <ele>245.75</ele>
        <time>2018-08-20T06:28:14Z</time>
      </trkpt>
      <trkpt lat="49.62967" lon="4.98303">
        <ele>243.35</ele>
        <time>2018-08-20T06:28:28Z</time>
      </trkpt>
      <trkpt lat="49.62952" lon="4.98301">
        <ele>241.91</ele>
        <time>2018-08-20T06:28:44Z</time>
      </trkpt>
      <trkpt lat="49.62936" lon="4.98305">
        <ele>240.95</ele>
        <time>2018-08-20T06:28:59Z</time>
      </trkpt>
      <trkpt lat="49.62929" lon="4.98312">
        <ele>241.91</ele>
        <time>2018-08-20T06:29:04Z</time>
      </trkpt>
      <trkpt lat="49.62924" lon="4.98315">
        <ele>241.43</ele>
        <time>2018-08-20T06:29:08Z</time>
      </trkpt>
      <trkpt lat="49.62908" lon="4.98323">
        <ele>242.87</ele>
        <time>2018-08-20T06:29:23Z</time>
      </trkpt>
      <trkpt lat="49.62894" lon="4.98328">
        <ele>242.87</ele>
        <time>2018-08-20T06:29:38Z</time>
      </trkpt>
      <trkpt lat="49.62879" lon="4.98332">
        <ele>240.47</ele>
        <time>2018-08-20T06:29:53Z</time>
      </trkpt>
      <trkpt lat="49.62878" lon="4.98332">
        <ele>240.47</ele>
        <time>2018-08-20T06:29:54Z</time>
      </trkpt>
      <trkpt lat="49.62874" lon="4.98334">
        <ele>240.47</ele>
        <time>2018-08-20T06:29:59Z</time>
      </trkpt>
      <trkpt lat="49.6286" lon="4.9834">
        <ele>240.47</ele>
        <time>2018-08-20T06:30:14Z</time>
      </trkpt>
      <trkpt lat="49.62846" lon="4.98347">
        <ele>241.43</ele>
        <time>2018-08-20T06:30:30Z</time>
      </trkpt>
      <trkpt lat="49.62833" lon="4.98358">
        <ele>240.95</ele>
        <time>2018-08-20T06:30:44Z</time>
      </trkpt>
      <trkpt lat="49.62826" lon="4.98366">
        <ele>241.43</ele>
        <time>2018-08-20T06:30:52Z</time>
      </trkpt>
      <trkpt lat="49.62818" lon="4.98374">
        <ele>239.99</ele>
        <time>2018-08-20T06:31:05Z</time>
      </trkpt>
      <trkpt lat="49.62802" lon="4.98384">
        <ele>241.91</ele>
        <time>2018-08-20T06:31:19Z</time>
      </trkpt>
      <trkpt lat="49.6279" lon="4.98394">
        <ele>241.91</ele>
        <time>2018-08-20T06:31:33Z</time>
      </trkpt>
      <trkpt lat="49.62777" lon="4.98403">
        <ele>240.95</ele>
        <time>2018-08-20T06:31:51Z</time>
      </trkpt>
      <trkpt lat="49.62758" lon="4.98418">
        <ele>243.83</ele>
        <time>2018-08-20T06:32:09Z</time>
      </trkpt>
      <trkpt lat="49.62745" lon="4.9843">
        <ele>245.27</ele>
        <time>2018-08-20T06:32:23Z</time>
      </trkpt>
      <trkpt lat="49.62732" lon="4.98439">
        <ele>246.23</ele>
        <time>2018-08-20T06:32:39Z</time>
      </trkpt>
      <trkpt lat="49.62718" lon="4.98452">
        <ele>248.16</ele>
        <time>2018-08-20T06:32:54Z</time>
      </trkpt>
      <trkpt lat="49.62712" lon="4.98457">
        <ele>249.6</ele>
        <time>2018-08-20T06:33:00Z</time>
      </trkpt>
      <trkpt lat="49.62698" lon="4.98466">
        <ele>251.04</ele>
        <time>2018-08-20T06:33:16Z</time>
      </trkpt>
      <trkpt lat="49.62683" lon="4.9848">
        <ele>249.6</ele>
        <time>2018-08-20T06:33:34Z</time>
      </trkpt>
      <trkpt lat="49.62668" lon="4.98493">
        <ele>251.52</ele>
        <time>2018-08-20T06:33:49Z</time>
      </trkpt>
      <trkpt lat="49.62655" lon="4.98506">
        <ele>252.48</ele>
        <time>2018-08-20T06:34:06Z</time>
      </trkpt>
      <trkpt lat="49.62642" lon="4.98519">
        <ele>253.93</ele>
        <time>2018-08-20T06:34:21Z</time>
      </trkpt>
      <trkpt lat="49.62628" lon="4.9853">
        <ele>253.93</ele>
        <time>2018-08-20T06:34:36Z</time>
      </trkpt>
      <trkpt lat="49.62627" lon="4.98531">
        <ele>253.93</ele>
        <time>2018-08-20T06:34:37Z</time>
      </trkpt>
      <trkpt lat="49.62619" lon="4.98536">
        <ele>253.93</ele>
        <time>2018-08-20T06:34:45Z</time>
      </trkpt>
      <trkpt lat="49.62604" lon="4.98547">
        <ele>255.37</ele>
        <time>2018-08-20T06:35:02Z</time>
      </trkpt>
      <trkpt lat="49.62589" lon="4.98559">
        <ele>257.77</ele>
        <time>2018-08-20T06:35:19Z</time>
      </trkpt>
      <trkpt lat="49.62572" lon="4.98573">
        <ele>259.69</ele>
        <time>2018-08-20T06:35:35Z</time>
      </trkpt>
      <trkpt lat="49.6256" lon="4.98577">
        <ele>260.17</ele>
        <time>2018-08-20T06:35:50Z</time>
      </trkpt>
      <trkpt lat="49.62558" lon="4.98572">
        <ele>259.69</ele>
        <time>2018-08-20T06:35:57Z</time>
      </trkpt>
      <trkpt lat="49.62553" lon="4.98559">
        <ele>257.29</ele>
        <time>2018-08-20T06:36:08Z</time>
      </trkpt>
      <trkpt lat="49.62538" lon="4.98562">
        <ele>254.41</ele>
        <time>2018-08-20T06:36:21Z</time>
      </trkpt>
      <trkpt lat="49.62525" lon="4.98566">
        <ele>252.96</ele>
        <time>2018-08-20T06:36:34Z</time>
      </trkpt>
      <trkpt lat="49.62512" lon="4.98563">
        <ele>252.48</ele>
        <time>2018-08-20T06:36:46Z</time>
      </trkpt>
      <trkpt lat="49.62497" lon="4.98552">
        <ele>252</ele>
        <time>2018-08-20T06:37:01Z</time>
      </trkpt>
      <trkpt lat="49.62493" lon="4.98549">
        <ele>252</ele>
        <time>2018-08-20T06:37:05Z</time>
      </trkpt>
      <trkpt lat="49.62479" lon="4.98534">
        <ele>252.48</ele>
        <time>2018-08-20T06:37:22Z</time>
      </trkpt>
      <trkpt lat="49.62478" lon="4.98533">
        <ele>252.48</ele>
        <time>2018-08-20T06:37:23Z</time>
      </trkpt>
      <trkpt lat="49.62476" lon="4.98532">
        <ele>252.96</ele>
        <time>2018-08-20T06:37:25Z</time>
      </trkpt>
      <trkpt lat="49.62457" lon="4.98526">
        <ele>254.41</ele>
        <time>2018-08-20T06:37:41Z</time>
      </trkpt>
      <trkpt lat="49.62453" lon="4.98524">
        <ele>254.89</ele>
        <time>2018-08-20T06:37:45Z</time>
      </trkpt>
      <trkpt lat="49.62443" lon="4.98516">
        <ele>256.81</ele>
        <time>2018-08-20T06:37:55Z</time>
      </trkpt>
      <trkpt lat="49.6243" lon="4.98504">
        <ele>258.73</ele>
        <time>2018-08-20T06:38:10Z</time>
      </trkpt>
      <trkpt lat="49.62417" lon="4.98494">
        <ele>261.14</ele>
        <time>2018-08-20T06:38:25Z</time>
      </trkpt>
      <trkpt lat="49.624" lon="4.98482">
        <ele>259.69</ele>
        <time>2018-08-20T06:38:40Z</time>
      </trkpt>
      <trkpt lat="49.62384" lon="4.98468">
        <ele>260.17</ele>
        <time>2018-08-20T06:38:56Z</time>
      </trkpt>
      <trkpt lat="49.62369" lon="4.98462">
        <ele>260.65</ele>
        <time>2018-08-20T06:39:10Z</time>
      </trkpt>
      <trkpt lat="49.62353" lon="4.98453">
        <ele>262.1</ele>
        <time>2018-08-20T06:39:25Z</time>
      </trkpt>
      <trkpt lat="49.62336" lon="4.9844">
        <ele>260.17</ele>
        <time>2018-08-20T06:39:42Z</time>
      </trkpt>
      <trkpt lat="49.62335" lon="4.9844">
        <ele>260.17</ele>
        <time>2018-08-20T06:39:43Z</time>
      </trkpt>
      <trkpt lat="49.6232" lon="4.98428">
        <ele>260.17</ele>
        <time>2018-08-20T06:39:58Z</time>
      </trkpt>
      <trkpt lat="49.62315" lon="4.9842">
        <ele>260.65</ele>
        <time>2018-08-20T06:40:06Z</time>
      </trkpt>
      <trkpt lat="49.62301" lon="4.98404">
        <ele>262.58</ele>
        <time>2018-08-20T06:40:20Z</time>
      </trkpt>
      <trkpt lat="49.6229" lon="4.98382">
        <ele>263.06</ele>
        <time>2018-08-20T06:40:36Z</time>
      </trkpt>
      <trkpt lat="49.62282" lon="4.98369">
        <ele>264.5</ele>
        <time>2018-08-20T06:40:46Z</time>
      </trkpt>
      <trkpt lat="49.62272" lon="4.98357">
        <ele>264.5</ele>
        <time>2018-08-20T06:40:58Z</time>
      </trkpt>
      <trkpt lat="49.62259" lon="4.98338">
        <ele>264.02</ele>
        <time>2018-08-20T06:41:14Z</time>
      </trkpt>
      <trkpt lat="49.62254" lon="4.9833">
        <ele>263.06</ele>
        <time>2018-08-20T06:41:22Z</time>
      </trkpt>
      <trkpt lat="49.62245" lon="4.98322">
        <ele>261.62</ele>
        <time>2018-08-20T06:41:32Z</time>
      </trkpt>
      <trkpt lat="49.62229" lon="4.98313">
        <ele>259.21</ele>
        <time>2018-08-20T06:41:47Z</time>
      </trkpt>
      <trkpt lat="49.62214" lon="4.98301">
        <ele>257.77</ele>
        <time>2018-08-20T06:42:02Z</time>
      </trkpt>
      <trkpt lat="49.6221" lon="4.98297">
        <ele>257.77</ele>
        <time>2018-08-20T06:42:06Z</time>
      </trkpt>
      <trkpt lat="49.62196" lon="4.98287">
        <ele>258.25</ele>
        <time>2018-08-20T06:42:22Z</time>
      </trkpt>
      <trkpt lat="49.62182" lon="4.9828">
        <ele>257.29</ele>
        <time>2018-08-20T06:42:37Z</time>
      </trkpt>
      <trkpt lat="49.62167" lon="4.98282">
        <ele>257.77</ele>
        <time>2018-08-20T06:42:50Z</time>
      </trkpt>
      <trkpt lat="49.62151" lon="4.98276">
        <ele>261.62</ele>
        <time>2018-08-20T06:43:05Z</time>
      </trkpt>
      <trkpt lat="49.62131" lon="4.98268">
        <ele>265.46</ele>
        <time>2018-08-20T06:43:20Z</time>
      </trkpt>
      <trkpt lat="49.62117" lon="4.98255">
        <ele>267.38</ele>
        <time>2018-08-20T06:43:35Z</time>
      </trkpt>
      <trkpt lat="49.62104" lon="4.98243">
        <ele>266.42</ele>
        <time>2018-08-20T06:43:49Z</time>
      </trkpt>
      <trkpt lat="49.62088" lon="4.98236">
        <ele>266.42</ele>
        <time>2018-08-20T06:44:05Z</time>
      </trkpt>
      <trkpt lat="49.62079" lon="4.9823">
        <ele>267.86</ele>
        <time>2018-08-20T06:44:14Z</time>
      </trkpt>
      <trkpt lat="49.62064" lon="4.98219">
        <ele>270.27</ele>
        <time>2018-08-20T06:44:27Z</time>
      </trkpt>
      <trkpt lat="49.62047" lon="4.9821">
        <ele>272.19</ele>
        <time>2018-08-20T06:44:43Z</time>
      </trkpt>
      <trkpt lat="49.62029" lon="4.98199">
        <ele>275.56</ele>
        <time>2018-08-20T06:45:00Z</time>
      </trkpt>
      <trkpt lat="49.62013" lon="4.98192">
        <ele>277</ele>
        <time>2018-08-20T06:45:14Z</time>
      </trkpt>
      <trkpt lat="49.61998" lon="4.98184">
        <ele>279.88</ele>
        <time>2018-08-20T06:45:28Z</time>
      </trkpt>
      <trkpt lat="49.61978" lon="4.98174">
        <ele>279.88</ele>
        <time>2018-08-20T06:45:44Z</time>
      </trkpt>
      <trkpt lat="49.61956" lon="4.98169">
        <ele>278.44</ele>
        <time>2018-08-20T06:46:02Z</time>
      </trkpt>
      <trkpt lat="49.61942" lon="4.98163">
        <ele>280.84</ele>
        <time>2018-08-20T06:46:18Z</time>
      </trkpt>
      <trkpt lat="49.61925" lon="4.98155">
        <ele>284.69</ele>
        <time>2018-08-20T06:46:33Z</time>
      </trkpt>
      <trkpt lat="49.61908" lon="4.98148">
        <ele>287.09</ele>
        <time>2018-08-20T06:46:47Z</time>
      </trkpt>
      <trkpt lat="49.61904" lon="4.98148">
        <ele>287.09</ele>
        <time>2018-08-20T06:46:52Z</time>
      </trkpt>
      <trkpt lat="49.61902" lon="4.98147">
        <ele>287.09</ele>
        <time>2018-08-20T06:46:54Z</time>
      </trkpt>
      <trkpt lat="49.61886" lon="4.98142">
        <ele>287.09</ele>
        <time>2018-08-20T06:47:09Z</time>
      </trkpt>
      <trkpt lat="49.61875" lon="4.98146">
        <ele>289.01</ele>
        <time>2018-08-20T06:47:21Z</time>
      </trkpt>
      <trkpt lat="49.61867" lon="4.98147">
        <ele>290.46</ele>
        <time>2018-08-20T06:47:29Z</time>
      </trkpt>
      <trkpt lat="49.61848" lon="4.98159">
        <ele>297.18</ele>
        <time>2018-08-20T06:47:48Z</time>
      </trkpt>
      <trkpt lat="49.61835" lon="4.98165">
        <ele>301.51</ele>
        <time>2018-08-20T06:48:03Z</time>
      </trkpt>
      <trkpt lat="49.61835" lon="4.98173">
        <ele>302.47</ele>
        <time>2018-08-20T06:48:17Z</time>
      </trkpt>
      <trkpt lat="49.61837" lon="4.98165">
        <ele>301.99</ele>
        <time>2018-08-20T06:48:29Z</time>
      </trkpt>
      <trkpt lat="49.61845" lon="4.98142">
        <ele>295.26</ele>
        <time>2018-08-20T06:48:47Z</time>
      </trkpt>
      <trkpt lat="49.61846" lon="4.98141">
        <ele>295.26</ele>
        <time>2018-08-20T06:48:48Z</time>
      </trkpt>
      <trkpt lat="49.61852" lon="4.9812">
        <ele>289.97</ele>
        <time>2018-08-20T06:49:02Z</time>
      </trkpt>
      <trkpt lat="49.61853" lon="4.98119">
        <ele>289.97</ele>
        <time>2018-08-20T06:49:03Z</time>
      </trkpt>
      <trkpt lat="49.61863" lon="4.98092">
        <ele>285.65</ele>
        <time>2018-08-20T06:49:23Z</time>
      </trkpt>
      <trkpt lat="49.61864" lon="4.9809">
        <ele>285.17</ele>
        <time>2018-08-20T06:49:25Z</time>
      </trkpt>
      <trkpt lat="49.6187" lon="4.98081">
        <ele>283.73</ele>
        <time>2018-08-20T06:49:33Z</time>
      </trkpt>
      <trkpt lat="49.61875" lon="4.98061">
        <ele>281.32</ele>
        <time>2018-08-20T06:49:46Z</time>
      </trkpt>
      <trkpt lat="49.61886" lon="4.98034">
        <ele>278.92</ele>
        <time>2018-08-20T06:50:04Z</time>
      </trkpt>
      <trkpt lat="49.61894" lon="4.98014">
        <ele>277</ele>
        <time>2018-08-20T06:50:18Z</time>
      </trkpt>
      <trkpt lat="49.61905" lon="4.97994">
        <ele>275.07</ele>
        <time>2018-08-20T06:50:33Z</time>
      </trkpt>
      <trkpt lat="49.6192" lon="4.97974">
        <ele>274.11</ele>
        <time>2018-08-20T06:50:49Z</time>
      </trkpt>
      <trkpt lat="49.61921" lon="4.97971">
        <ele>273.63</ele>
        <time>2018-08-20T06:50:51Z</time>
      </trkpt>
      <trkpt lat="49.61938" lon="4.97948">
        <ele>274.59</ele>
        <time>2018-08-20T06:51:10Z</time>
      </trkpt>
      <trkpt lat="49.61952" lon="4.97926">
        <ele>274.59</ele>
        <time>2018-08-20T06:51:28Z</time>
      </trkpt>
      <trkpt lat="49.61965" lon="4.97903">
        <ele>274.11</ele>
        <time>2018-08-20T06:51:46Z</time>
      </trkpt>
      <trkpt lat="49.61978" lon="4.97878">
        <ele>274.11</ele>
        <time>2018-08-20T06:52:03Z</time>
      </trkpt>
      <trkpt lat="49.61987" lon="4.97854">
        <ele>274.11</ele>
        <time>2018-08-20T06:52:19Z</time>
      </trkpt>
      <trkpt lat="49.61996" lon="4.97822">
        <ele>275.07</ele>
        <time>2018-08-20T06:52:38Z</time>
      </trkpt>
      <trkpt lat="49.62002" lon="4.97793">
        <ele>274.11</ele>
        <time>2018-08-20T06:52:56Z</time>
      </trkpt>
      <trkpt lat="49.62007" lon="4.97764">
        <ele>273.63</ele>
        <time>2018-08-20T06:53:13Z</time>
      </trkpt>
      <trkpt lat="49.62014" lon="4.97729">
        <ele>275.56</ele>
        <time>2018-08-20T06:53:33Z</time>
      </trkpt>
      <trkpt lat="49.62019" lon="4.97697">
        <ele>275.56</ele>
        <time>2018-08-20T06:53:52Z</time>
      </trkpt>
      <trkpt lat="49.62024" lon="4.97666">
        <ele>275.56</ele>
        <time>2018-08-20T06:54:10Z</time>
      </trkpt>
      <trkpt lat="49.62027" lon="4.97635">
        <ele>274.59</ele>
        <time>2018-08-20T06:54:28Z</time>
      </trkpt>
      <trkpt lat="49.6203" lon="4.97602">
        <ele>273.63</ele>
        <time>2018-08-20T06:54:48Z</time>
      </trkpt>
      <trkpt lat="49.62031" lon="4.97566">
        <ele>274.59</ele>
        <time>2018-08-20T06:55:08Z</time>
      </trkpt>
      <trkpt lat="49.62035" lon="4.97534">
        <ele>275.56</ele>
        <time>2018-08-20T06:55:26Z</time>
      </trkpt>
      <trkpt lat="49.6203" lon="4.97507">
        <ele>276.04</ele>
        <time>2018-08-20T06:55:43Z</time>
      </trkpt>
      <trkpt lat="49.62013" lon="4.97505">
        <ele>275.07</ele>
        <time>2018-08-20T06:55:58Z</time>
      </trkpt>
      <trkpt lat="49.61993" lon="4.97505">
        <ele>272.19</ele>
        <time>2018-08-20T06:56:14Z</time>
      </trkpt>
      <trkpt lat="49.61974" lon="4.97505">
        <ele>271.23</ele>
        <time>2018-08-20T06:56:30Z</time>
      </trkpt>
      <trkpt lat="49.61956" lon="4.97506">
        <ele>271.23</ele>
        <time>2018-08-20T06:56:48Z</time>
      </trkpt>
      <trkpt lat="49.61937" lon="4.97505">
        <ele>271.23</ele>
        <time>2018-08-20T06:57:04Z</time>
      </trkpt>
      <trkpt lat="49.61926" lon="4.97505">
        <ele>270.75</ele>
        <time>2018-08-20T06:57:19Z</time>
      </trkpt>
      <trkpt lat="49.61907" lon="4.97505">
        <ele>269.79</ele>
        <time>2018-08-20T06:57:36Z</time>
      </trkpt>
      <trkpt lat="49.61889" lon="4.97502">
        <ele>267.38</ele>
        <time>2018-08-20T06:57:54Z</time>
      </trkpt>
      <trkpt lat="49.61876" lon="4.97489">
        <ele>265.46</ele>
        <time>2018-08-20T06:58:10Z</time>
      </trkpt>
      <trkpt lat="49.61863" lon="4.97467">
        <ele>264.02</ele>
        <time>2018-08-20T06:58:27Z</time>
      </trkpt>
      <trkpt lat="49.61846" lon="4.97444">
        <ele>263.54</ele>
        <time>2018-08-20T06:58:44Z</time>
      </trkpt>
      <trkpt lat="49.61834" lon="4.97427">
        <ele>262.58</ele>
        <time>2018-08-20T06:59:00Z</time>
      </trkpt>
      <trkpt lat="49.61822" lon="4.9741">
        <ele>261.62</ele>
        <time>2018-08-20T06:59:15Z</time>
      </trkpt>
      <trkpt lat="49.61814" lon="4.97385">
        <ele>263.06</ele>
        <time>2018-08-20T06:59:30Z</time>
      </trkpt>
      <trkpt lat="49.61808" lon="4.97362">
        <ele>261.14</ele>
        <time>2018-08-20T06:59:46Z</time>
      </trkpt>
      <trkpt lat="49.61807" lon="4.97351">
        <ele>261.14</ele>
        <time>2018-08-20T06:59:53Z</time>
      </trkpt>
      <trkpt lat="49.61801" lon="4.97329">
        <ele>261.14</ele>
        <time>2018-08-20T07:00:08Z</time>
      </trkpt>
      <trkpt lat="49.61794" lon="4.97301">
        <ele>260.17</ele>
        <time>2018-08-20T07:00:25Z</time>
      </trkpt>
      <trkpt lat="49.61792" lon="4.97293">
        <ele>260.17</ele>
        <time>2018-08-20T07:00:36Z</time>
      </trkpt>
      <trkpt lat="49.61787" lon="4.97268">
        <ele>260.17</ele>
        <time>2018-08-20T07:00:53Z</time>
      </trkpt>
      <trkpt lat="49.6178" lon="4.97249">
        <ele>257.77</ele>
        <time>2018-08-20T07:01:08Z</time>
      </trkpt>
      <trkpt lat="49.61777" lon="4.97239">
        <ele>256.81</ele>
        <time>2018-08-20T07:01:16Z</time>
      </trkpt>
      <trkpt lat="49.61771" lon="4.97218">
        <ele>254.41</ele>
        <time>2018-08-20T07:01:30Z</time>
      </trkpt>
      <trkpt lat="49.61769" lon="4.9721">
        <ele>253.93</ele>
        <time>2018-08-20T07:01:34Z</time>
      </trkpt>
      <trkpt lat="49.61765" lon="4.97188">
        <ele>253.44</ele>
        <time>2018-08-20T07:01:49Z</time>
      </trkpt>
      <trkpt lat="49.61755" lon="4.97157">
        <ele>254.41</ele>
        <time>2018-08-20T07:02:07Z</time>
      </trkpt>
      <trkpt lat="49.6175" lon="4.97152">
        <ele>254.41</ele>
        <time>2018-08-20T07:02:12Z</time>
      </trkpt>
      <trkpt lat="49.61737" lon="4.97171">
        <ele>255.37</ele>
        <time>2018-08-20T07:02:27Z</time>
      </trkpt>
      <trkpt lat="49.61722" lon="4.97188">
        <ele>255.37</ele>
        <time>2018-08-20T07:02:42Z</time>
      </trkpt>
      <trkpt lat="49.61705" lon="4.97209">
        <ele>254.89</ele>
        <time>2018-08-20T07:03:00Z</time>
      </trkpt>
      <trkpt lat="49.61694" lon="4.97234">
        <ele>256.33</ele>
        <time>2018-08-20T07:03:17Z</time>
      </trkpt>
      <trkpt lat="49.6168" lon="4.9726">
        <ele>255.85</ele>
        <time>2018-08-20T07:03:34Z</time>
      </trkpt>
      <trkpt lat="49.61664" lon="4.97282">
        <ele>255.85</ele>
        <time>2018-08-20T07:03:52Z</time>
      </trkpt>
      <trkpt lat="49.6165" lon="4.97302">
        <ele>255.37</ele>
        <time>2018-08-20T07:04:08Z</time>
      </trkpt>
      <trkpt lat="49.61635" lon="4.97325">
        <ele>255.37</ele>
        <time>2018-08-20T07:04:23Z</time>
      </trkpt>
      <trkpt lat="49.61621" lon="4.97342">
        <ele>254.89</ele>
        <time>2018-08-20T07:04:40Z</time>
      </trkpt>
      <trkpt lat="49.61606" lon="4.97364">
        <ele>255.37</ele>
        <time>2018-08-20T07:04:58Z</time>
      </trkpt>
      <trkpt lat="49.61592" lon="4.97384">
        <ele>255.37</ele>
        <time>2018-08-20T07:05:13Z</time>
      </trkpt>
      <trkpt lat="49.6159" lon="4.97387">
        <ele>255.37</ele>
        <time>2018-08-20T07:05:16Z</time>
      </trkpt>
      <trkpt lat="49.61585" lon="4.97392">
        <ele>255.37</ele>
        <time>2018-08-20T07:05:21Z</time>
      </trkpt>
      <trkpt lat="49.61571" lon="4.97417">
        <ele>254.89</ele>
        <time>2018-08-20T07:05:38Z</time>
      </trkpt>
      <trkpt lat="49.61558" lon="4.97438">
        <ele>256.33</ele>
        <time>2018-08-20T07:05:54Z</time>
      </trkpt>
      <trkpt lat="49.61544" lon="4.97458">
        <ele>257.29</ele>
        <time>2018-08-20T07:06:12Z</time>
      </trkpt>
      <trkpt lat="49.61531" lon="4.97477">
        <ele>259.21</ele>
        <time>2018-08-20T07:06:27Z</time>
      </trkpt>
      <trkpt lat="49.61519" lon="4.97495">
        <ele>262.1</ele>
        <time>2018-08-20T07:06:42Z</time>
      </trkpt>
      <trkpt lat="49.61508" lon="4.97511">
        <ele>263.54</ele>
        <time>2018-08-20T07:06:56Z</time>
      </trkpt>
      <trkpt lat="49.61496" lon="4.97525">
        <ele>264.98</ele>
        <time>2018-08-20T07:07:10Z</time>
      </trkpt>
      <trkpt lat="49.61485" lon="4.9754">
        <ele>265.94</ele>
        <time>2018-08-20T07:07:23Z</time>
      </trkpt>
      <trkpt lat="49.61471" lon="4.97555">
        <ele>267.38</ele>
        <time>2018-08-20T07:07:37Z</time>
      </trkpt>
      <trkpt lat="49.6146" lon="4.97569">
        <ele>268.83</ele>
        <time>2018-08-20T07:07:51Z</time>
      </trkpt>
      <trkpt lat="49.61448" lon="4.97586">
        <ele>270.27</ele>
        <time>2018-08-20T07:08:04Z</time>
      </trkpt>
      <trkpt lat="49.61436" lon="4.97604">
        <ele>271.23</ele>
        <time>2018-08-20T07:08:19Z</time>
      </trkpt>
      <trkpt lat="49.61424" lon="4.9762">
        <ele>272.67</ele>
        <time>2018-08-20T07:08:33Z</time>
      </trkpt>
      <trkpt lat="49.61414" lon="4.97633">
        <ele>273.63</ele>
        <time>2018-08-20T07:08:46Z</time>
      </trkpt>
      <trkpt lat="49.61401" lon="4.97648">
        <ele>274.59</ele>
        <time>2018-08-20T07:09:00Z</time>
      </trkpt>
      <trkpt lat="49.61391" lon="4.97658">
        <ele>276.04</ele>
        <time>2018-08-20T07:09:12Z</time>
      </trkpt>
      <trkpt lat="49.61376" lon="4.97672">
        <ele>277.96</ele>
        <time>2018-08-20T07:09:29Z</time>
      </trkpt>
      <trkpt lat="49.61364" lon="4.97684">
        <ele>278.92</ele>
        <time>2018-08-20T07:09:42Z</time>
      </trkpt>
      <trkpt lat="49.61351" lon="4.97698">
        <ele>280.84</ele>
        <time>2018-08-20T07:09:57Z</time>
      </trkpt>
      <trkpt lat="49.61338" lon="4.97708">
        <ele>283.25</ele>
        <time>2018-08-20T07:10:11Z</time>
      </trkpt>
      <trkpt lat="49.61325" lon="4.97718">
        <ele>285.65</ele>
        <time>2018-08-20T07:10:25Z</time>
      </trkpt>
      <trkpt lat="49.61314" lon="4.9773">
        <ele>287.09</ele>
        <time>2018-08-20T07:10:37Z</time>
      </trkpt>
      <trkpt lat="49.61302" lon="4.97738">
        <ele>289.01</ele>
        <time>2018-08-20T07:10:48Z</time>
      </trkpt>
      <trkpt lat="49.61288" lon="4.97748">
        <ele>290.94</ele>
        <time>2018-08-20T07:11:03Z</time>
      </trkpt>
      <trkpt lat="49.61273" lon="4.97759">
        <ele>293.82</ele>
        <time>2018-08-20T07:11:18Z</time>
      </trkpt>
      <trkpt lat="49.61261" lon="4.97769">
        <ele>295.74</ele>
        <time>2018-08-20T07:11:31Z</time>
      </trkpt>
      <trkpt lat="49.61246" lon="4.97777">
        <ele>298.63</ele>
        <time>2018-08-20T07:11:46Z</time>
      </trkpt>
      <trkpt lat="49.6123" lon="4.97779">
        <ele>300.07</ele>
        <time>2018-08-20T07:12:01Z</time>
      </trkpt>
      <trkpt lat="49.61229" lon="4.97779">
        <ele>299.11</ele>
        <time>2018-08-20T07:12:17Z</time>
      </trkpt>
      <trkpt lat="49.61222" lon="4.97788">
        <ele>299.59</ele>
        <time>2018-08-20T07:12:26Z</time>
      </trkpt>
      <trkpt lat="49.61218" lon="4.97792">
        <ele>299.59</ele>
        <time>2018-08-20T07:12:30Z</time>
      </trkpt>
      <trkpt lat="49.61217" lon="4.97795">
        <ele>300.07</ele>
        <time>2018-08-20T07:12:33Z</time>
      </trkpt>
      <trkpt lat="49.61212" lon="4.978">
        <ele>300.55</ele>
        <time>2018-08-20T07:12:38Z</time>
      </trkpt>
      <trkpt lat="49.61206" lon="4.97805">
        <ele>301.03</ele>
        <time>2018-08-20T07:12:45Z</time>
      </trkpt>
      <trkpt lat="49.61194" lon="4.97814">
        <ele>302.47</ele>
        <time>2018-08-20T07:12:58Z</time>
      </trkpt>
      <trkpt lat="49.61182" lon="4.97831">
        <ele>303.43</ele>
        <time>2018-08-20T07:13:13Z</time>
      </trkpt>
      <trkpt lat="49.61166" lon="4.97847">
        <ele>302.47</ele>
        <time>2018-08-20T07:13:30Z</time>
      </trkpt>
      <trkpt lat="49.61154" lon="4.97862">
        <ele>303.43</ele>
        <time>2018-08-20T07:13:43Z</time>
      </trkpt>
      <trkpt lat="49.61153" lon="4.97863">
        <ele>303.91</ele>
        <time>2018-08-20T07:13:44Z</time>
      </trkpt>
      <trkpt lat="49.61137" lon="4.97881">
        <ele>305.36</ele>
        <time>2018-08-20T07:14:02Z</time>
      </trkpt>
      <trkpt lat="49.61124" lon="4.97895">
        <ele>305.84</ele>
        <time>2018-08-20T07:14:15Z</time>
      </trkpt>
      <trkpt lat="49.61115" lon="4.97907">
        <ele>308.24</ele>
        <time>2018-08-20T07:14:27Z</time>
      </trkpt>
      <trkpt lat="49.61105" lon="4.97928">
        <ele>311.6</ele>
        <time>2018-08-20T07:14:41Z</time>
      </trkpt>
      <trkpt lat="49.61094" lon="4.97944">
        <ele>314.97</ele>
        <time>2018-08-20T07:14:54Z</time>
      </trkpt>
      <trkpt lat="49.61082" lon="4.97969">
        <ele>316.89</ele>
        <time>2018-08-20T07:15:13Z</time>
      </trkpt>
      <trkpt lat="49.61079" lon="4.97972">
        <ele>316.89</ele>
        <time>2018-08-20T07:15:16Z</time>
      </trkpt>
      <trkpt lat="49.61065" lon="4.97987">
        <ele>315.93</ele>
        <time>2018-08-20T07:15:30Z</time>
      </trkpt>
      <trkpt lat="49.61062" lon="4.97988">
        <ele>315.93</ele>
        <time>2018-08-20T07:15:32Z</time>
      </trkpt>
      <trkpt lat="49.61052" lon="4.98002">
        <ele>315.93</ele>
        <time>2018-08-20T07:15:45Z</time>
      </trkpt>
      <trkpt lat="49.6104" lon="4.98021">
        <ele>318.33</ele>
        <time>2018-08-20T07:16:02Z</time>
      </trkpt>
      <trkpt lat="49.6103" lon="4.98032">
        <ele>318.81</ele>
        <time>2018-08-20T07:16:13Z</time>
      </trkpt>
      <trkpt lat="49.61022" lon="4.98045">
        <ele>316.89</ele>
        <time>2018-08-20T07:16:25Z</time>
      </trkpt>
      <trkpt lat="49.61012" lon="4.98061">
        <ele>316.89</ele>
        <time>2018-08-20T07:16:41Z</time>
      </trkpt>
      <trkpt lat="49.60997" lon="4.98075">
        <ele>312.09</ele>
        <time>2018-08-20T07:16:54Z</time>
      </trkpt>
      <trkpt lat="49.60994" lon="4.98087">
        <ele>312.57</ele>
        <time>2018-08-20T07:17:01Z</time>
      </trkpt>
      <trkpt lat="49.60986" lon="4.98108">
        <ele>313.53</ele>
        <time>2018-08-20T07:17:13Z</time>
      </trkpt>
      <trkpt lat="49.60977" lon="4.98128">
        <ele>313.05</ele>
        <time>2018-08-20T07:17:29Z</time>
      </trkpt>
      <trkpt lat="49.60962" lon="4.9815">
        <ele>311.12</ele>
        <time>2018-08-20T07:17:45Z</time>
      </trkpt>
      <trkpt lat="49.60949" lon="4.98169">
        <ele>310.16</ele>
        <time>2018-08-20T07:18:03Z</time>
      </trkpt>
      <trkpt lat="49.60939" lon="4.98186">
        <ele>310.64</ele>
        <time>2018-08-20T07:18:16Z</time>
      </trkpt>
      <trkpt lat="49.60929" lon="4.98206">
        <ele>311.12</ele>
        <time>2018-08-20T07:18:30Z</time>
      </trkpt>
      <trkpt lat="49.60928" lon="4.98211">
        <ele>310.64</ele>
        <time>2018-08-20T07:18:33Z</time>
      </trkpt>
      <trkpt lat="49.60925" lon="4.98228">
        <ele>309.68</ele>
        <time>2018-08-20T07:18:42Z</time>
      </trkpt>
      <trkpt lat="49.60921" lon="4.98242">
        <ele>308.72</ele>
        <time>2018-08-20T07:18:49Z</time>
      </trkpt>
      <trkpt lat="49.60916" lon="4.98261">
        <ele>308.24</ele>
        <time>2018-08-20T07:19:01Z</time>
      </trkpt>
      <trkpt lat="49.60908" lon="4.98284">
        <ele>304.88</ele>
        <time>2018-08-20T07:19:16Z</time>
      </trkpt>
      <trkpt lat="49.60904" lon="4.98293">
        <ele>302.95</ele>
        <time>2018-08-20T07:19:21Z</time>
      </trkpt>
      <trkpt lat="49.60897" lon="4.98313">
        <ele>301.03</ele>
        <time>2018-08-20T07:19:36Z</time>
      </trkpt>
      <trkpt lat="49.60888" lon="4.98337">
        <ele>299.11</ele>
        <time>2018-08-20T07:19:51Z</time>
      </trkpt>
      <trkpt lat="49.60887" lon="4.98344">
        <ele>298.63</ele>
        <time>2018-08-20T07:20:03Z</time>
      </trkpt>
      <trkpt lat="49.60885" lon="4.98354">
        <ele>297.18</ele>
        <time>2018-08-20T07:20:08Z</time>
      </trkpt>
      <trkpt lat="49.60879" lon="4.98366">
        <ele>295.74</ele>
        <time>2018-08-20T07:20:17Z</time>
      </trkpt>
      <trkpt lat="49.6087" lon="4.98391">
        <ele>298.63</ele>
        <time>2018-08-20T07:20:32Z</time>
      </trkpt>
      <trkpt lat="49.60861" lon="4.9841">
        <ele>301.99</ele>
        <time>2018-08-20T07:20:46Z</time>
      </trkpt>
      <trkpt lat="49.60851" lon="4.98426">
        <ele>305.36</ele>
        <time>2018-08-20T07:21:00Z</time>
      </trkpt>
      <trkpt lat="49.60848" lon="4.98432">
        <ele>307.28</ele>
        <time>2018-08-20T07:21:06Z</time>
      </trkpt>
      <trkpt lat="49.60839" lon="4.98452">
        <ele>310.16</ele>
        <time>2018-08-20T07:21:19Z</time>
      </trkpt>
      <trkpt lat="49.60832" lon="4.98466">
        <ele>312.57</ele>
        <time>2018-08-20T07:21:31Z</time>
      </trkpt>
      <trkpt lat="49.60823" lon="4.98487">
        <ele>313.05</ele>
        <time>2018-08-20T07:21:46Z</time>
      </trkpt>
      <trkpt lat="49.60812" lon="4.98506">
        <ele>314.49</ele>
        <time>2018-08-20T07:22:02Z</time>
      </trkpt>
      <trkpt lat="49.60799" lon="4.98526">
        <ele>314.01</ele>
        <time>2018-08-20T07:22:17Z</time>
      </trkpt>
      <trkpt lat="49.60789" lon="4.98544">
        <ele>314.01</ele>
        <time>2018-08-20T07:22:29Z</time>
      </trkpt>
      <trkpt lat="49.60778" lon="4.98571">
        <ele>315.93</ele>
        <time>2018-08-20T07:22:46Z</time>
      </trkpt>
      <trkpt lat="49.60768" lon="4.98594">
        <ele>314.49</ele>
        <time>2018-08-20T07:23:01Z</time>
      </trkpt>
      <trkpt lat="49.60757" lon="4.98612">
        <ele>317.85</ele>
        <time>2018-08-20T07:23:15Z</time>
      </trkpt>
      <trkpt lat="49.60749" lon="4.98623">
        <ele>319.78</ele>
        <time>2018-08-20T07:23:24Z</time>
      </trkpt>
      <trkpt lat="49.60738" lon="4.98642">
        <ele>323.62</ele>
        <time>2018-08-20T07:23:37Z</time>
      </trkpt>
      <trkpt lat="49.60729" lon="4.98658">
        <ele>327.47</ele>
        <time>2018-08-20T07:23:48Z</time>
      </trkpt>
      <trkpt lat="49.60722" lon="4.98677">
        <ele>328.91</ele>
        <time>2018-08-20T07:23:59Z</time>
      </trkpt>
      <trkpt lat="49.60721" lon="4.98684">
        <ele>326.99</ele>
        <time>2018-08-20T07:24:03Z</time>
      </trkpt>
      <trkpt lat="49.60715" lon="4.98701">
        <ele>327.95</ele>
        <time>2018-08-20T07:24:18Z</time>
      </trkpt>
      <trkpt lat="49.60706" lon="4.98724">
        <ele>329.87</ele>
        <time>2018-08-20T07:24:33Z</time>
      </trkpt>
      <trkpt lat="49.60698" lon="4.98748">
        <ele>329.87</ele>
        <time>2018-08-20T07:24:48Z</time>
      </trkpt>
      <trkpt lat="49.60689" lon="4.98765">
        <ele>328.91</ele>
        <time>2018-08-20T07:25:00Z</time>
      </trkpt>
      <trkpt lat="49.60682" lon="4.98779">
        <ele>328.91</ele>
        <time>2018-08-20T07:25:11Z</time>
      </trkpt>
      <trkpt lat="49.60677" lon="4.98783">
        <ele>327.95</ele>
        <time>2018-08-20T07:25:15Z</time>
      </trkpt>
      <trkpt lat="49.6067" lon="4.98798">
        <ele>324.1</ele>
        <time>2018-08-20T07:25:24Z</time>
      </trkpt>
      <trkpt lat="49.60662" lon="4.9881">
        <ele>318.81</ele>
        <time>2018-08-20T07:25:36Z</time>
      </trkpt>
      <trkpt lat="49.60653" lon="4.98829">
        <ele>315.93</ele>
        <time>2018-08-20T07:25:50Z</time>
      </trkpt>
      <trkpt lat="49.60639" lon="4.98853">
        <ele>313.53</ele>
        <time>2018-08-20T07:26:04Z</time>
      </trkpt>
      <trkpt lat="49.60629" lon="4.98878">
        <ele>310.64</ele>
        <time>2018-08-20T07:26:18Z</time>
      </trkpt>
      <trkpt lat="49.60629" lon="4.98879">
        <ele>310.64</ele>
        <time>2018-08-20T07:26:19Z</time>
      </trkpt>
      <trkpt lat="49.60627" lon="4.98889">
        <ele>310.64</ele>
        <time>2018-08-20T07:26:23Z</time>
      </trkpt>
      <trkpt lat="49.60621" lon="4.98899">
        <ele>311.12</ele>
        <time>2018-08-20T07:26:30Z</time>
      </trkpt>
      <trkpt lat="49.60604" lon="4.98901">
        <ele>315.45</ele>
        <time>2018-08-20T07:26:45Z</time>
      </trkpt>
      <trkpt lat="49.60594" lon="4.989">
        <ele>322.18</ele>
        <time>2018-08-20T07:26:58Z</time>
      </trkpt>
      <trkpt lat="49.60584" lon="4.98896">
        <ele>325.06</ele>
        <time>2018-08-20T07:27:08Z</time>
      </trkpt>
      <trkpt lat="49.60564" lon="4.98891">
        <ele>328.91</ele>
        <time>2018-08-20T07:27:23Z</time>
      </trkpt>
      <trkpt lat="49.60548" lon="4.98891">
        <ele>328.43</ele>
        <time>2018-08-20T07:27:38Z</time>
      </trkpt>
      <trkpt lat="49.60538" lon="4.98887">
        <ele>328.43</ele>
        <time>2018-08-20T07:27:46Z</time>
      </trkpt>
      <trkpt lat="49.60522" lon="4.98881">
        <ele>331.31</ele>
        <time>2018-08-20T07:28:00Z</time>
      </trkpt>
      <trkpt lat="49.60519" lon="4.98881">
        <ele>331.31</ele>
        <time>2018-08-20T07:28:03Z</time>
      </trkpt>
      <trkpt lat="49.60503" lon="4.98874">
        <ele>333.23</ele>
        <time>2018-08-20T07:28:18Z</time>
      </trkpt>
      <trkpt lat="49.6049" lon="4.98865">
        <ele>334.68</ele>
        <time>2018-08-20T07:28:32Z</time>
      </trkpt>
      <trkpt lat="49.60475" lon="4.98857">
        <ele>334.2</ele>
        <time>2018-08-20T07:28:47Z</time>
      </trkpt>
      <trkpt lat="49.60462" lon="4.98846">
        <ele>332.27</ele>
        <time>2018-08-20T07:28:59Z</time>
      </trkpt>
      <trkpt lat="49.60447" lon="4.98836">
        <ele>330.35</ele>
        <time>2018-08-20T07:29:14Z</time>
      </trkpt>
      <trkpt lat="49.60433" lon="4.9883">
        <ele>328.91</ele>
        <time>2018-08-20T07:29:26Z</time>
      </trkpt>
      <trkpt lat="49.6042" lon="4.98825">
        <ele>326.02</ele>
        <time>2018-08-20T07:29:39Z</time>
      </trkpt>
      <trkpt lat="49.60403" lon="4.98815">
        <ele>325.06</ele>
        <time>2018-08-20T07:29:55Z</time>
      </trkpt>
      <trkpt lat="49.60386" lon="4.98805">
        <ele>324.58</ele>
        <time>2018-08-20T07:30:09Z</time>
      </trkpt>
      <trkpt lat="49.60375" lon="4.98804">
        <ele>322.18</ele>
        <time>2018-08-20T07:30:21Z</time>
      </trkpt>
      <trkpt lat="49.60357" lon="4.98793">
        <ele>323.14</ele>
        <time>2018-08-20T07:30:37Z</time>
      </trkpt>
      <trkpt lat="49.6035" lon="4.98787">
        <ele>324.1</ele>
        <time>2018-08-20T07:30:44Z</time>
      </trkpt>
      <trkpt lat="49.60335" lon="4.98781">
        <ele>328.43</ele>
        <time>2018-08-20T07:30:58Z</time>
      </trkpt>
      <trkpt lat="49.60334" lon="4.9878">
        <ele>328.91</ele>
        <time>2018-08-20T07:31:00Z</time>
      </trkpt>
      <trkpt lat="49.6032" lon="4.98772">
        <ele>331.31</ele>
        <time>2018-08-20T07:31:14Z</time>
      </trkpt>
      <trkpt lat="49.60304" lon="4.98769">
        <ele>332.27</ele>
        <time>2018-08-20T07:31:27Z</time>
      </trkpt>
      <trkpt lat="49.60298" lon="4.98763">
        <ele>332.75</ele>
        <time>2018-08-20T07:31:33Z</time>
      </trkpt>
      <trkpt lat="49.60284" lon="4.98757">
        <ele>332.75</ele>
        <time>2018-08-20T07:31:49Z</time>
      </trkpt>
      <trkpt lat="49.60266" lon="4.98752">
        <ele>332.75</ele>
        <time>2018-08-20T07:32:05Z</time>
      </trkpt>
      <trkpt lat="49.60252" lon="4.98746">
        <ele>331.31</ele>
        <time>2018-08-20T07:32:17Z</time>
      </trkpt>
      <trkpt lat="49.60228" lon="4.98746">
        <ele>313.53</ele>
        <time>2018-08-20T07:32:34Z</time>
      </trkpt>
      <trkpt lat="49.60226" lon="4.98746">
        <ele>312.09</ele>
        <time>2018-08-20T07:32:36Z</time>
      </trkpt>
      <trkpt lat="49.60222" lon="4.98745">
        <ele>310.16</ele>
        <time>2018-08-20T07:32:41Z</time>
      </trkpt>
      <trkpt lat="49.60216" lon="4.98745">
        <ele>309.2</ele>
        <time>2018-08-20T07:32:46Z</time>
      </trkpt>
      <trkpt lat="49.60201" lon="4.98744">
        <ele>309.68</ele>
        <time>2018-08-20T07:33:00Z</time>
      </trkpt>
      <trkpt lat="49.60193" lon="4.98741">
        <ele>309.68</ele>
        <time>2018-08-20T07:33:08Z</time>
      </trkpt>
      <trkpt lat="49.6018" lon="4.98727">
        <ele>309.68</ele>
        <time>2018-08-20T07:33:20Z</time>
      </trkpt>
      <trkpt lat="49.60167" lon="4.98711">
        <ele>311.6</ele>
        <time>2018-08-20T07:33:34Z</time>
      </trkpt>
      <trkpt lat="49.60155" lon="4.98697">
        <ele>312.09</ele>
        <time>2018-08-20T07:33:49Z</time>
      </trkpt>
      <trkpt lat="49.6014" lon="4.98681">
        <ele>314.49</ele>
        <time>2018-08-20T07:34:05Z</time>
      </trkpt>
      <trkpt lat="49.60126" lon="4.98663">
        <ele>315.45</ele>
        <time>2018-08-20T07:34:21Z</time>
      </trkpt>
      <trkpt lat="49.60123" lon="4.98658">
        <ele>315.45</ele>
        <time>2018-08-20T07:34:26Z</time>
      </trkpt>
      <trkpt lat="49.60122" lon="4.98654">
        <ele>315.93</ele>
        <time>2018-08-20T07:34:29Z</time>
      </trkpt>
      <trkpt lat="49.60108" lon="4.98632">
        <ele>317.85</ele>
        <time>2018-08-20T07:34:47Z</time>
      </trkpt>
      <trkpt lat="49.60097" lon="4.98615">
        <ele>317.85</ele>
        <time>2018-08-20T07:35:00Z</time>
      </trkpt>
      <trkpt lat="49.60096" lon="4.98614">
        <ele>318.33</ele>
        <time>2018-08-20T07:35:01Z</time>
      </trkpt>
      <trkpt lat="49.60081" lon="4.98603">
        <ele>316.89</ele>
        <time>2018-08-20T07:35:15Z</time>
      </trkpt>
      <trkpt lat="49.6008" lon="4.98602">
        <ele>316.89</ele>
        <time>2018-08-20T07:35:16Z</time>
      </trkpt>
      <trkpt lat="49.6006" lon="4.98613">
        <ele>310.64</ele>
        <time>2018-08-20T07:35:33Z</time>
      </trkpt>
      <trkpt lat="49.60057" lon="4.98613">
        <ele>309.68</ele>
        <time>2018-08-20T07:35:35Z</time>
      </trkpt>
      <trkpt lat="49.6005" lon="4.98611">
        <ele>309.68</ele>
        <time>2018-08-20T07:35:42Z</time>
      </trkpt>
      <trkpt lat="49.60046" lon="4.98609">
        <ele>310.64</ele>
        <time>2018-08-20T07:35:46Z</time>
      </trkpt>
      <trkpt lat="49.60028" lon="4.98598">
        <ele>315.45</ele>
        <time>2018-08-20T07:36:04Z</time>
      </trkpt>
      <trkpt lat="49.60014" lon="4.98587">
        <ele>320.26</ele>
        <time>2018-08-20T07:36:21Z</time>
      </trkpt>
      <trkpt lat="49.59997" lon="4.98581">
        <ele>323.14</ele>
        <time>2018-08-20T07:36:34Z</time>
      </trkpt>
      <trkpt lat="49.59983" lon="4.9857">
        <ele>330.83</ele>
        <time>2018-08-20T07:36:49Z</time>
      </trkpt>
      <trkpt lat="49.59967" lon="4.98562">
        <ele>337.56</ele>
        <time>2018-08-20T07:37:05Z</time>
      </trkpt>
      <trkpt lat="49.59964" lon="4.98559">
        <ele>338.52</ele>
        <time>2018-08-20T07:37:08Z</time>
      </trkpt>
      <trkpt lat="49.59948" lon="4.98549">
        <ele>345.25</ele>
        <time>2018-08-20T07:37:25Z</time>
      </trkpt>
      <trkpt lat="49.5993" lon="4.98538">
        <ele>345.25</ele>
        <time>2018-08-20T07:37:41Z</time>
      </trkpt>
      <trkpt lat="49.59929" lon="4.98537">
        <ele>345.25</ele>
        <time>2018-08-20T07:37:42Z</time>
      </trkpt>
      <trkpt lat="49.59928" lon="4.98534">
        <ele>345.25</ele>
        <time>2018-08-20T07:37:45Z</time>
      </trkpt>
      <trkpt lat="49.59919" lon="4.98516">
        <ele>342.85</ele>
        <time>2018-08-20T07:38:00Z</time>
      </trkpt>
      <trkpt lat="49.59911" lon="4.98495">
        <ele>337.56</ele>
        <time>2018-08-20T07:38:15Z</time>
      </trkpt>
      <trkpt lat="49.59902" lon="4.98477">
        <ele>336.12</ele>
        <time>2018-08-20T07:38:33Z</time>
      </trkpt>
      <trkpt lat="49.59895" lon="4.98452">
        <ele>334.68</ele>
        <time>2018-08-20T07:38:48Z</time>
      </trkpt>
      <trkpt lat="49.59886" lon="4.98434">
        <ele>333.23</ele>
        <time>2018-08-20T07:39:01Z</time>
      </trkpt>
      <trkpt lat="49.5988" lon="4.98418">
        <ele>332.75</ele>
        <time>2018-08-20T07:39:12Z</time>
      </trkpt>
      <trkpt lat="49.59871" lon="4.98401">
        <ele>328.91</ele>
        <time>2018-08-20T07:39:27Z</time>
      </trkpt>
      <trkpt lat="49.59865" lon="4.98382">
        <ele>328.43</ele>
        <time>2018-08-20T07:39:40Z</time>
      </trkpt>
      <trkpt lat="49.59858" lon="4.98361">
        <ele>327.95</ele>
        <time>2018-08-20T07:39:53Z</time>
      </trkpt>
      <trkpt lat="49.59852" lon="4.98344">
        <ele>325.06</ele>
        <time>2018-08-20T07:40:03Z</time>
      </trkpt>
      <trkpt lat="49.59845" lon="4.98326">
        <ele>322.18</ele>
        <time>2018-08-20T07:40:12Z</time>
      </trkpt>
      <trkpt lat="49.5984" lon="4.98303">
        <ele>322.18</ele>
        <time>2018-08-20T07:40:25Z</time>
      </trkpt>
      <trkpt lat="49.59831" lon="4.9828">
        <ele>321.7</ele>
        <time>2018-08-20T07:40:41Z</time>
      </trkpt>
      <trkpt lat="49.59818" lon="4.98253">
        <ele>319.78</ele>
        <time>2018-08-20T07:40:57Z</time>
      </trkpt>
      <trkpt lat="49.59811" lon="4.9824">
        <ele>318.33</ele>
        <time>2018-08-20T07:41:08Z</time>
      </trkpt>
      <trkpt lat="49.59805" lon="4.98218">
        <ele>317.85</ele>
        <time>2018-08-20T07:41:23Z</time>
      </trkpt>
      <trkpt lat="49.59802" lon="4.9821">
        <ele>316.89</ele>
        <time>2018-08-20T07:41:33Z</time>
      </trkpt>
      <trkpt lat="49.59793" lon="4.98186">
        <ele>316.89</ele>
        <time>2018-08-20T07:41:48Z</time>
      </trkpt>
      <trkpt lat="49.59789" lon="4.98176">
        <ele>316.89</ele>
        <time>2018-08-20T07:41:54Z</time>
      </trkpt>
      <trkpt lat="49.5978" lon="4.98147">
        <ele>316.41</ele>
        <time>2018-08-20T07:42:13Z</time>
      </trkpt>
      <trkpt lat="49.59772" lon="4.98127">
        <ele>316.89</ele>
        <time>2018-08-20T07:42:27Z</time>
      </trkpt>
      <trkpt lat="49.59762" lon="4.98098">
        <ele>318.33</ele>
        <time>2018-08-20T07:42:45Z</time>
      </trkpt>
      <trkpt lat="49.5975" lon="4.98073">
        <ele>316.41</ele>
        <time>2018-08-20T07:43:01Z</time>
      </trkpt>
      <trkpt lat="49.59749" lon="4.9807">
        <ele>316.41</ele>
        <time>2018-08-20T07:43:04Z</time>
      </trkpt>
      <trkpt lat="49.59744" lon="4.98054">
        <ele>315.93</ele>
        <time>2018-08-20T07:43:13Z</time>
      </trkpt>
      <trkpt lat="49.59729" lon="4.98033">
        <ele>312.57</ele>
        <time>2018-08-20T07:43:29Z</time>
      </trkpt>
      <trkpt lat="49.5972" lon="4.9801">
        <ele>311.6</ele>
        <time>2018-08-20T07:43:43Z</time>
      </trkpt>
      <trkpt lat="49.5971" lon="4.97986">
        <ele>310.64</ele>
        <time>2018-08-20T07:43:59Z</time>
      </trkpt>
      <trkpt lat="49.597" lon="4.97963">
        <ele>310.64</ele>
        <time>2018-08-20T07:44:14Z</time>
      </trkpt>
      <trkpt lat="49.59691" lon="4.97943">
        <ele>310.16</ele>
        <time>2018-08-20T07:44:30Z</time>
      </trkpt>
      <trkpt lat="49.59679" lon="4.97918">
        <ele>310.64</ele>
        <time>2018-08-20T07:44:46Z</time>
      </trkpt>
      <trkpt lat="49.59667" lon="4.9789">
        <ele>311.6</ele>
        <time>2018-08-20T07:45:05Z</time>
      </trkpt>
      <trkpt lat="49.59654" lon="4.97866">
        <ele>310.16</ele>
        <time>2018-08-20T07:45:23Z</time>
      </trkpt>
      <trkpt lat="49.59644" lon="4.9785">
        <ele>310.64</ele>
        <time>2018-08-20T07:45:36Z</time>
      </trkpt>
      <trkpt lat="49.59634" lon="4.97827">
        <ele>311.12</ele>
        <time>2018-08-20T07:45:52Z</time>
      </trkpt>
      <trkpt lat="49.59624" lon="4.97807">
        <ele>309.68</ele>
        <time>2018-08-20T07:46:08Z</time>
      </trkpt>
      <trkpt lat="49.59613" lon="4.97787">
        <ele>309.68</ele>
        <time>2018-08-20T07:46:22Z</time>
      </trkpt>
      <trkpt lat="49.59605" lon="4.97771">
        <ele>309.2</ele>
        <time>2018-08-20T07:46:33Z</time>
      </trkpt>
      <trkpt lat="49.59595" lon="4.97749">
        <ele>309.2</ele>
        <time>2018-08-20T07:46:49Z</time>
      </trkpt>
      <trkpt lat="49.59585" lon="4.97727">
        <ele>309.2</ele>
        <time>2018-08-20T07:47:05Z</time>
      </trkpt>
      <trkpt lat="49.59571" lon="4.97703">
        <ele>309.2</ele>
        <time>2018-08-20T07:47:23Z</time>
      </trkpt>
      <trkpt lat="49.59563" lon="4.97689">
        <ele>309.68</ele>
        <time>2018-08-20T07:47:33Z</time>
      </trkpt>
      <trkpt lat="49.59556" lon="4.9768">
        <ele>309.68</ele>
        <time>2018-08-20T07:47:41Z</time>
      </trkpt>
      <trkpt lat="49.59552" lon="4.97676">
        <ele>309.2</ele>
        <time>2018-08-20T07:47:45Z</time>
      </trkpt>
      <trkpt lat="49.5954" lon="4.97658">
        <ele>306.8</ele>
        <time>2018-08-20T07:48:00Z</time>
      </trkpt>
      <trkpt lat="49.5953" lon="4.97638">
        <ele>306.32</ele>
        <time>2018-08-20T07:48:15Z</time>
      </trkpt>
      <trkpt lat="49.59528" lon="4.97632">
        <ele>306.32</ele>
        <time>2018-08-20T07:48:19Z</time>
      </trkpt>
      <trkpt lat="49.59517" lon="4.97613">
        <ele>303.91</ele>
        <time>2018-08-20T07:48:34Z</time>
      </trkpt>
      <trkpt lat="49.59506" lon="4.97591">
        <ele>302.95</ele>
        <time>2018-08-20T07:48:49Z</time>
      </trkpt>
      <trkpt lat="49.59494" lon="4.9757">
        <ele>302.47</ele>
        <time>2018-08-20T07:49:05Z</time>
      </trkpt>
      <trkpt lat="49.59482" lon="4.9755">
        <ele>301.99</ele>
        <time>2018-08-20T07:49:21Z</time>
      </trkpt>
      <trkpt lat="49.59472" lon="4.97531">
        <ele>302.47</ele>
        <time>2018-08-20T07:49:36Z</time>
      </trkpt>
      <trkpt lat="49.59462" lon="4.97513">
        <ele>302.47</ele>
        <time>2018-08-20T07:49:51Z</time>
      </trkpt>
      <trkpt lat="49.59453" lon="4.97499">
        <ele>301.03</ele>
        <time>2018-08-20T07:50:02Z</time>
      </trkpt>
      <trkpt lat="49.59441" lon="4.97477">
        <ele>299.59</ele>
        <time>2018-08-20T07:50:19Z</time>
      </trkpt>
      <trkpt lat="49.59429" lon="4.97457">
        <ele>298.63</ele>
        <time>2018-08-20T07:50:35Z</time>
      </trkpt>
      <trkpt lat="49.59416" lon="4.97435">
        <ele>300.07</ele>
        <time>2018-08-20T07:50:51Z</time>
      </trkpt>
      <trkpt lat="49.59408" lon="4.97427">
        <ele>298.63</ele>
        <time>2018-08-20T07:51:05Z</time>
      </trkpt>
      <trkpt lat="49.59408" lon="4.97428">
        <ele>296.7</ele>
        <time>2018-08-20T07:51:22Z</time>
      </trkpt>
      <trkpt lat="49.59404" lon="4.97434">
        <ele>296.22</ele>
        <time>2018-08-20T07:51:38Z</time>
      </trkpt>
      <trkpt lat="49.59392" lon="4.97451">
        <ele>297.18</ele>
        <time>2018-08-20T07:51:53Z</time>
      </trkpt>
      <trkpt lat="49.59379" lon="4.97473">
        <ele>299.11</ele>
        <time>2018-08-20T07:52:09Z</time>
      </trkpt>
      <trkpt lat="49.59366" lon="4.97493">
        <ele>300.55</ele>
        <time>2018-08-20T07:52:25Z</time>
      </trkpt>
      <trkpt lat="49.59352" lon="4.97513">
        <ele>301.51</ele>
        <time>2018-08-20T07:52:41Z</time>
      </trkpt>
      <trkpt lat="49.59337" lon="4.97535">
        <ele>302.95</ele>
        <time>2018-08-20T07:52:58Z</time>
      </trkpt>
      <trkpt lat="49.59323" lon="4.97552">
        <ele>302.95</ele>
        <time>2018-08-20T07:53:14Z</time>
      </trkpt>
      <trkpt lat="49.59308" lon="4.97571">
        <ele>303.91</ele>
        <time>2018-08-20T07:53:30Z</time>
      </trkpt>
      <trkpt lat="49.59304" lon="4.97575">
        <ele>304.39</ele>
        <time>2018-08-20T07:53:34Z</time>
      </trkpt>
      <trkpt lat="49.59291" lon="4.97593">
        <ele>304.88</ele>
        <time>2018-08-20T07:53:50Z</time>
      </trkpt>
      <trkpt lat="49.59275" lon="4.97614">
        <ele>305.36</ele>
        <time>2018-08-20T07:54:08Z</time>
      </trkpt>
      <trkpt lat="49.5926" lon="4.97634">
        <ele>306.32</ele>
        <time>2018-08-20T07:54:26Z</time>
      </trkpt>
      <trkpt lat="49.5926" lon="4.97636">
        <ele>306.32</ele>
        <time>2018-08-20T07:54:29Z</time>
      </trkpt>
      <trkpt lat="49.59246" lon="4.97654">
        <ele>304.88</ele>
        <time>2018-08-20T07:54:45Z</time>
      </trkpt>
      <trkpt lat="49.59232" lon="4.97674">
        <ele>304.88</ele>
        <time>2018-08-20T07:55:01Z</time>
      </trkpt>
      <trkpt lat="49.59216" lon="4.97691">
        <ele>303.43</ele>
        <time>2018-08-20T07:55:19Z</time>
      </trkpt>
      <trkpt lat="49.59202" lon="4.97707">
        <ele>303.43</ele>
        <time>2018-08-20T07:55:35Z</time>
      </trkpt>
      <trkpt lat="49.59187" lon="4.97726">
        <ele>303.43</ele>
        <time>2018-08-20T07:55:52Z</time>
      </trkpt>
      <trkpt lat="49.59186" lon="4.97726">
        <ele>303.43</ele>
        <time>2018-08-20T07:55:53Z</time>
      </trkpt>
      <trkpt lat="49.59168" lon="4.97741">
        <ele>303.43</ele>
        <time>2018-08-20T07:56:11Z</time>
      </trkpt>
      <trkpt lat="49.59163" lon="4.97744">
        <ele>303.43</ele>
        <time>2018-08-20T07:56:16Z</time>
      </trkpt>
      <trkpt lat="49.59159" lon="4.97748">
        <ele>303.91</ele>
        <time>2018-08-20T07:56:20Z</time>
      </trkpt>
      <trkpt lat="49.59143" lon="4.97761">
        <ele>303.43</ele>
        <time>2018-08-20T07:56:37Z</time>
      </trkpt>
      <trkpt lat="49.5914" lon="4.97762">
        <ele>303.91</ele>
        <time>2018-08-20T07:56:40Z</time>
      </trkpt>
      <trkpt lat="49.59132" lon="4.9777">
        <ele>303.43</ele>
        <time>2018-08-20T07:56:49Z</time>
      </trkpt>
      <trkpt lat="49.59121" lon="4.97776">
        <ele>303.91</ele>
        <time>2018-08-20T07:57:05Z</time>
      </trkpt>
      <trkpt lat="49.59119" lon="4.97779">
        <ele>304.39</ele>
        <time>2018-08-20T07:57:26Z</time>
      </trkpt>
      <trkpt lat="49.59122" lon="4.97778">
        <ele>304.39</ele>
        <time>2018-08-20T07:57:30Z</time>
      </trkpt>
      <trkpt lat="49.59143" lon="4.97766">
        <ele>305.36</ele>
        <time>2018-08-20T07:57:49Z</time>
      </trkpt>
      <trkpt lat="49.59162" lon="4.97752">
        <ele>305.84</ele>
        <time>2018-08-20T07:58:07Z</time>
      </trkpt>
      <trkpt lat="49.59181" lon="4.97736">
        <ele>306.32</ele>
        <time>2018-08-20T07:58:25Z</time>
      </trkpt>
      <trkpt lat="49.592" lon="4.97717">
        <ele>306.32</ele>
        <time>2018-08-20T07:58:44Z</time>
      </trkpt>
      <trkpt lat="49.59217" lon="4.97698">
        <ele>306.8</ele>
        <time>2018-08-20T07:59:02Z</time>
      </trkpt>
      <trkpt lat="49.59234" lon="4.97677">
        <ele>307.28</ele>
        <time>2018-08-20T07:59:22Z</time>
      </trkpt>
      <trkpt lat="49.59237" lon="4.97648">
        <ele>307.76</ele>
        <time>2018-08-20T07:59:38Z</time>
      </trkpt>
      <trkpt lat="49.59233" lon="4.97619">
        <ele>306.8</ele>
        <time>2018-08-20T07:59:55Z</time>
      </trkpt>
      <trkpt lat="49.59229" lon="4.97585">
        <ele>306.8</ele>
        <time>2018-08-20T08:00:14Z</time>
      </trkpt>
      <trkpt lat="49.59228" lon="4.97575">
        <ele>306.8</ele>
        <time>2018-08-20T08:00:21Z</time>
      </trkpt>
      <trkpt lat="49.59225" lon="4.97541">
        <ele>307.76</ele>
        <time>2018-08-20T08:00:40Z</time>
      </trkpt>
      <trkpt lat="49.59221" lon="4.97509">
        <ele>306.8</ele>
        <time>2018-08-20T08:00:58Z</time>
      </trkpt>
      <trkpt lat="49.59219" lon="4.97497">
        <ele>306.32</ele>
        <time>2018-08-20T08:01:06Z</time>
      </trkpt>
      <trkpt lat="49.59215" lon="4.97461">
        <ele>306.8</ele>
        <time>2018-08-20T08:01:26Z</time>
      </trkpt>
      <trkpt lat="49.59215" lon="4.97458">
        <ele>306.8</ele>
        <time>2018-08-20T08:01:28Z</time>
      </trkpt>
      <trkpt lat="49.59211" lon="4.97421">
        <ele>306.32</ele>
        <time>2018-08-20T08:01:48Z</time>
      </trkpt>
      <trkpt lat="49.5921" lon="4.97412">
        <ele>305.84</ele>
        <time>2018-08-20T08:01:54Z</time>
      </trkpt>
      <trkpt lat="49.59205" lon="4.97375">
        <ele>305.84</ele>
        <time>2018-08-20T08:02:14Z</time>
      </trkpt>
      <trkpt lat="49.59205" lon="4.97366">
        <ele>305.36</ele>
        <time>2018-08-20T08:02:20Z</time>
      </trkpt>
      <trkpt lat="49.59204" lon="4.97349">
        <ele>305.36</ele>
        <time>2018-08-20T08:02:29Z</time>
      </trkpt>
      <trkpt lat="49.59199" lon="4.9732">
        <ele>303.43</ele>
        <time>2018-08-20T08:02:47Z</time>
      </trkpt>
      <trkpt lat="49.59195" lon="4.97286">
        <ele>303.91</ele>
        <time>2018-08-20T08:03:06Z</time>
      </trkpt>
      <trkpt lat="49.59193" lon="4.97255">
        <ele>303.43</ele>
        <time>2018-08-20T08:03:25Z</time>
      </trkpt>
      <trkpt lat="49.59189" lon="4.97222">
        <ele>301.99</ele>
        <time>2018-08-20T08:03:44Z</time>
      </trkpt>
      <trkpt lat="49.59186" lon="4.97188">
        <ele>304.88</ele>
        <time>2018-08-20T08:04:03Z</time>
      </trkpt>
      <trkpt lat="49.59183" lon="4.97157">
        <ele>301.99</ele>
        <time>2018-08-20T08:04:22Z</time>
      </trkpt>
      <trkpt lat="49.5918" lon="4.97135">
        <ele>300.55</ele>
        <time>2018-08-20T08:04:34Z</time>
      </trkpt>
      <trkpt lat="49.59177" lon="4.97121">
        <ele>299.11</ele>
        <time>2018-08-20T08:04:43Z</time>
      </trkpt>
      <trkpt lat="49.59173" lon="4.97086">
        <ele>296.7</ele>
        <time>2018-08-20T08:05:01Z</time>
      </trkpt>
      <trkpt lat="49.59167" lon="4.97057">
        <ele>293.82</ele>
        <time>2018-08-20T08:05:18Z</time>
      </trkpt>
      <trkpt lat="49.59166" lon="4.9705">
        <ele>293.34</ele>
        <time>2018-08-20T08:05:23Z</time>
      </trkpt>
      <trkpt lat="49.59162" lon="4.97016">
        <ele>291.9</ele>
        <time>2018-08-20T08:05:41Z</time>
      </trkpt>
      <trkpt lat="49.59161" lon="4.97">
        <ele>291.42</ele>
        <time>2018-08-20T08:05:51Z</time>
      </trkpt>
      <trkpt lat="49.59158" lon="4.96973">
        <ele>291.9</ele>
        <time>2018-08-20T08:06:07Z</time>
      </trkpt>
      <trkpt lat="49.59154" lon="4.96939">
        <ele>290.94</ele>
        <time>2018-08-20T08:06:26Z</time>
      </trkpt>
      <trkpt lat="49.59151" lon="4.96904">
        <ele>290.94</ele>
        <time>2018-08-20T08:06:46Z</time>
      </trkpt>
      <trkpt lat="49.59146" lon="4.96875">
        <ele>287.09</ele>
        <time>2018-08-20T08:07:04Z</time>
      </trkpt>
      <trkpt lat="49.59142" lon="4.96837">
        <ele>284.21</ele>
        <time>2018-08-20T08:07:24Z</time>
      </trkpt>
      <trkpt lat="49.59138" lon="4.96815">
        <ele>283.73</ele>
        <time>2018-08-20T08:07:38Z</time>
      </trkpt>
      <trkpt lat="49.59138" lon="4.96796">
        <ele>284.21</ele>
        <time>2018-08-20T08:07:48Z</time>
      </trkpt>
      <trkpt lat="49.59134" lon="4.96757">
        <ele>281.32</ele>
        <time>2018-08-20T08:08:10Z</time>
      </trkpt>
      <trkpt lat="49.59132" lon="4.96728">
        <ele>277.96</ele>
        <time>2018-08-20T08:08:26Z</time>
      </trkpt>
      <trkpt lat="49.59133" lon="4.96693">
        <ele>276.04</ele>
        <time>2018-08-20T08:08:45Z</time>
      </trkpt>
      <trkpt lat="49.59136" lon="4.96662">
        <ele>273.63</ele>
        <time>2018-08-20T08:09:04Z</time>
      </trkpt>
      <trkpt lat="49.5914" lon="4.96627">
        <ele>268.83</ele>
        <time>2018-08-20T08:09:23Z</time>
      </trkpt>
      <trkpt lat="49.59145" lon="4.96599">
        <ele>265.46</ele>
        <time>2018-08-20T08:09:40Z</time>
      </trkpt>
      <trkpt lat="49.59146" lon="4.96598">
        <ele>265.46</ele>
        <time>2018-08-20T08:09:41Z</time>
      </trkpt>
      <trkpt lat="49.5915" lon="4.96569">
        <ele>263.54</ele>
        <time>2018-08-20T08:09:57Z</time>
      </trkpt>
      <trkpt lat="49.59155" lon="4.96536">
        <ele>262.1</ele>
        <time>2018-08-20T08:10:17Z</time>
      </trkpt>
      <trkpt lat="49.59155" lon="4.96503">
        <ele>256.81</ele>
        <time>2018-08-20T08:10:36Z</time>
      </trkpt>
      <trkpt lat="49.59155" lon="4.9648">
        <ele>255.85</ele>
        <time>2018-08-20T08:10:49Z</time>
      </trkpt>
      <trkpt lat="49.59156" lon="4.96476">
        <ele>255.37</ele>
        <time>2018-08-20T08:10:51Z</time>
      </trkpt>
      <trkpt lat="49.59155" lon="4.96446">
        <ele>247.68</ele>
        <time>2018-08-20T08:11:09Z</time>
      </trkpt>
      <trkpt lat="49.59155" lon="4.96445">
        <ele>247.2</ele>
        <time>2018-08-20T08:11:10Z</time>
      </trkpt>
      <trkpt lat="49.59156" lon="4.96439">
        <ele>246.23</ele>
        <time>2018-08-20T08:11:13Z</time>
      </trkpt>
      <trkpt lat="49.59156" lon="4.96433">
        <ele>245.75</ele>
        <time>2018-08-20T08:11:17Z</time>
      </trkpt>
      <trkpt lat="49.59156" lon="4.96426">
        <ele>245.27</ele>
        <time>2018-08-20T08:11:21Z</time>
      </trkpt>
      <trkpt lat="49.59159" lon="4.96399">
        <ele>243.83</ele>
        <time>2018-08-20T08:11:37Z</time>
      </trkpt>
      <trkpt lat="49.59158" lon="4.9639">
        <ele>241.91</ele>
        <time>2018-08-20T08:11:43Z</time>
      </trkpt>
      <trkpt lat="49.59159" lon="4.96382">
        <ele>240.95</ele>
        <time>2018-08-20T08:11:47Z</time>
      </trkpt>
      <trkpt lat="49.59159" lon="4.96357">
        <ele>240.95</ele>
        <time>2018-08-20T08:12:01Z</time>
      </trkpt>
      <trkpt lat="49.59155" lon="4.96335">
        <ele>240.47</ele>
        <time>2018-08-20T08:12:15Z</time>
      </trkpt>
      <trkpt lat="49.5915" lon="4.96312">
        <ele>238.54</ele>
        <time>2018-08-20T08:12:28Z</time>
      </trkpt>
      <trkpt lat="49.59145" lon="4.96304">
        <ele>237.1</ele>
        <time>2018-08-20T08:12:34Z</time>
      </trkpt>
      <trkpt lat="49.59132" lon="4.96275">
        <ele>231.33</ele>
        <time>2018-08-20T08:12:50Z</time>
      </trkpt>
      <trkpt lat="49.59127" lon="4.96268">
        <ele>230.85</ele>
        <time>2018-08-20T08:12:56Z</time>
      </trkpt>
      <trkpt lat="49.59116" lon="4.96241">
        <ele>228.45</ele>
        <time>2018-08-20T08:13:14Z</time>
      </trkpt>
      <trkpt lat="49.59108" lon="4.96235">
        <ele>226.05</ele>
        <time>2018-08-20T08:13:27Z</time>
      </trkpt>
      <trkpt lat="49.59105" lon="4.96235">
        <ele>225.57</ele>
        <time>2018-08-20T08:13:57Z</time>
      </trkpt>
      <trkpt lat="49.59104" lon="4.96235">
        <ele>226.05</ele>
        <time>2018-08-20T08:14:25Z</time>
      </trkpt>
      <trkpt lat="49.59103" lon="4.96231">
        <ele>225.57</ele>
        <time>2018-08-20T08:14:42Z</time>
      </trkpt>
      <trkpt lat="49.59097" lon="4.96214">
        <ele>223.64</ele>
        <time>2018-08-20T08:14:54Z</time>
      </trkpt>
      <trkpt lat="49.59096" lon="4.96211">
        <ele>223.16</ele>
        <time>2018-08-20T08:14:56Z</time>
      </trkpt>
      <trkpt lat="49.59094" lon="4.96204">
        <ele>222.2</ele>
        <time>2018-08-20T08:15:01Z</time>
      </trkpt>
      <trkpt lat="49.59087" lon="4.96183">
        <ele>220.76</ele>
        <time>2018-08-20T08:15:17Z</time>
      </trkpt>
      <trkpt lat="49.59087" lon="4.96183">
        <ele>220.76</ele>
        <time>2018-08-20T08:15:18Z</time>
      </trkpt>
      <trkpt lat="49.59075" lon="4.96157">
        <ele>215.95</ele>
        <time>2018-08-20T08:15:35Z</time>
      </trkpt>
      <trkpt lat="49.59066" lon="4.96133">
        <ele>214.99</ele>
        <time>2018-08-20T08:15:50Z</time>
      </trkpt>
      <trkpt lat="49.59059" lon="4.96099">
        <ele>214.51</ele>
        <time>2018-08-20T08:16:10Z</time>
      </trkpt>
      <trkpt lat="49.59058" lon="4.96096">
        <ele>214.51</ele>
        <time>2018-08-20T08:16:12Z</time>
      </trkpt>
      <trkpt lat="49.59054" lon="4.96085">
        <ele>212.59</ele>
        <time>2018-08-20T08:16:19Z</time>
      </trkpt>
      <trkpt lat="49.59044" lon="4.96059">
        <ele>210.19</ele>
        <time>2018-08-20T08:16:35Z</time>
      </trkpt>
      <trkpt lat="49.59036" lon="4.96027">
        <ele>208.74</ele>
        <time>2018-08-20T08:16:54Z</time>
      </trkpt>
      <trkpt lat="49.59032" lon="4.95996">
        <ele>207.78</ele>
        <time>2018-08-20T08:17:12Z</time>
      </trkpt>
      <trkpt lat="49.59029" lon="4.95962">
        <ele>207.3</ele>
        <time>2018-08-20T08:17:32Z</time>
      </trkpt>
      <trkpt lat="49.59029" lon="4.95929">
        <ele>207.3</ele>
        <time>2018-08-20T08:17:49Z</time>
      </trkpt>
      <trkpt lat="49.59031" lon="4.95897">
        <ele>206.34</ele>
        <time>2018-08-20T08:18:08Z</time>
      </trkpt>
      <trkpt lat="49.59033" lon="4.95868">
        <ele>203.94</ele>
        <time>2018-08-20T08:18:25Z</time>
      </trkpt>
      <trkpt lat="49.59041" lon="4.95833">
        <ele>204.9</ele>
        <time>2018-08-20T08:18:43Z</time>
      </trkpt>
      <trkpt lat="49.59045" lon="4.95823">
        <ele>205.86</ele>
        <time>2018-08-20T08:18:52Z</time>
      </trkpt>
      <trkpt lat="49.59051" lon="4.95791">
        <ele>204.42</ele>
        <time>2018-08-20T08:19:10Z</time>
      </trkpt>
      <trkpt lat="49.59046" lon="4.95772">
        <ele>202.49</ele>
        <time>2018-08-20T08:19:24Z</time>
      </trkpt>
      <trkpt lat="49.59039" lon="4.95738">
        <ele>200.57</ele>
        <time>2018-08-20T08:19:43Z</time>
      </trkpt>
      <trkpt lat="49.59035" lon="4.9571">
        <ele>199.61</ele>
        <time>2018-08-20T08:20:00Z</time>
      </trkpt>
      <trkpt lat="49.59032" lon="4.95677">
        <ele>199.61</ele>
        <time>2018-08-20T08:20:16Z</time>
      </trkpt>
      <trkpt lat="49.5903" lon="4.95645">
        <ele>198.65</ele>
        <time>2018-08-20T08:20:33Z</time>
      </trkpt>
      <trkpt lat="49.59026" lon="4.95617">
        <ele>197.69</ele>
        <time>2018-08-20T08:20:49Z</time>
      </trkpt>
      <trkpt lat="49.59024" lon="4.95585">
        <ele>196.73</ele>
        <time>2018-08-20T08:21:06Z</time>
      </trkpt>
      <trkpt lat="49.59024" lon="4.95582">
        <ele>196.73</ele>
        <time>2018-08-20T08:21:14Z</time>
      </trkpt>
      <trkpt lat="49.59022" lon="4.95575">
        <ele>196.73</ele>
        <time>2018-08-20T08:21:18Z</time>
      </trkpt>
      <trkpt lat="49.59019" lon="4.95565">
        <ele>196.73</ele>
        <time>2018-08-20T08:21:24Z</time>
      </trkpt>
      <trkpt lat="49.59015" lon="4.95531">
        <ele>198.17</ele>
        <time>2018-08-20T08:21:43Z</time>
      </trkpt>
      <trkpt lat="49.5901" lon="4.955">
        <ele>197.21</ele>
        <time>2018-08-20T08:22:01Z</time>
      </trkpt>
      <trkpt lat="49.59005" lon="4.95474">
        <ele>198.17</ele>
        <time>2018-08-20T08:22:15Z</time>
      </trkpt>
      <trkpt lat="49.59004" lon="4.95444">
        <ele>201.05</ele>
        <time>2018-08-20T08:22:31Z</time>
      </trkpt>
      <trkpt lat="49.59004" lon="4.95437">
        <ele>202.01</ele>
        <time>2018-08-20T08:22:36Z</time>
      </trkpt>
      <trkpt lat="49.59009" lon="4.95425">
        <ele>202.49</ele>
        <time>2018-08-20T08:22:50Z</time>
      </trkpt>
      <trkpt lat="49.59011" lon="4.95422">
        <ele>201.05</ele>
        <time>2018-08-20T08:23:02Z</time>
      </trkpt>
      <trkpt lat="49.59014" lon="4.9542">
        <ele>199.61</ele>
        <time>2018-08-20T08:23:06Z</time>
      </trkpt>
      <trkpt lat="49.59036" lon="4.95424">
        <ele>198.17</ele>
        <time>2018-08-20T08:23:23Z</time>
      </trkpt>
      <trkpt lat="49.59058" lon="4.95423">
        <ele>200.57</ele>
        <time>2018-08-20T08:23:41Z</time>
      </trkpt>
      <trkpt lat="49.5908" lon="4.95423">
        <ele>200.09</ele>
        <time>2018-08-20T08:23:59Z</time>
      </trkpt>
      <trkpt lat="49.59101" lon="4.95423">
        <ele>201.05</ele>
        <time>2018-08-20T08:24:17Z</time>
      </trkpt>
      <trkpt lat="49.59122" lon="4.95423">
        <ele>200.57</ele>
        <time>2018-08-20T08:24:34Z</time>
      </trkpt>
      <trkpt lat="49.59149" lon="4.95422">
        <ele>200.57</ele>
        <time>2018-08-20T08:24:55Z</time>
      </trkpt>
      <trkpt lat="49.59161" lon="4.9542">
        <ele>201.53</ele>
        <time>2018-08-20T08:25:07Z</time>
      </trkpt>
      <trkpt lat="49.59187" lon="4.95419">
        <ele>202.49</ele>
        <time>2018-08-20T08:25:28Z</time>
      </trkpt>
      <trkpt lat="49.5921" lon="4.95416">
        <ele>202.49</ele>
        <time>2018-08-20T08:25:46Z</time>
      </trkpt>
      <trkpt lat="49.59232" lon="4.95414">
        <ele>201.53</ele>
        <time>2018-08-20T08:26:04Z</time>
      </trkpt>
      <trkpt lat="49.59251" lon="4.95412">
        <ele>200.57</ele>
        <time>2018-08-20T08:26:21Z</time>
      </trkpt>
      <trkpt lat="49.59271" lon="4.95411">
        <ele>202.49</ele>
        <time>2018-08-20T08:26:38Z</time>
      </trkpt>
      <trkpt lat="49.59291" lon="4.95411">
        <ele>204.42</ele>
        <time>2018-08-20T08:26:55Z</time>
      </trkpt>
      <trkpt lat="49.59312" lon="4.95413">
        <ele>203.46</ele>
        <time>2018-08-20T08:27:12Z</time>
      </trkpt>
      <trkpt lat="49.5933" lon="4.95422">
        <ele>204.42</ele>
        <time>2018-08-20T08:27:29Z</time>
      </trkpt>
      <trkpt lat="49.59348" lon="4.95436">
        <ele>203.94</ele>
        <time>2018-08-20T08:27:46Z</time>
      </trkpt>
      <trkpt lat="49.59365" lon="4.95449">
        <ele>203.94</ele>
        <time>2018-08-20T08:28:03Z</time>
      </trkpt>
      <trkpt lat="49.59381" lon="4.95462">
        <ele>204.9</ele>
        <time>2018-08-20T08:28:21Z</time>
      </trkpt>
      <trkpt lat="49.59399" lon="4.95475">
        <ele>207.3</ele>
        <time>2018-08-20T08:28:38Z</time>
      </trkpt>
      <trkpt lat="49.59416" lon="4.95485">
        <ele>208.26</ele>
        <time>2018-08-20T08:28:54Z</time>
      </trkpt>
      <trkpt lat="49.59417" lon="4.95484">
        <ele>208.26</ele>
        <time>2018-08-20T08:28:55Z</time>
      </trkpt>
      <trkpt lat="49.59408" lon="4.95461">
        <ele>206.34</ele>
        <time>2018-08-20T08:29:11Z</time>
      </trkpt>
      <trkpt lat="49.59394" lon="4.95438">
        <ele>204.42</ele>
        <time>2018-08-20T08:29:28Z</time>
      </trkpt>
      <trkpt lat="49.59383" lon="4.95411">
        <ele>204.42</ele>
        <time>2018-08-20T08:29:46Z</time>
      </trkpt>
      <trkpt lat="49.59377" lon="4.9539">
        <ele>204.9</ele>
        <time>2018-08-20T08:29:59Z</time>
      </trkpt>
      <trkpt lat="49.59367" lon="4.95362">
        <ele>205.86</ele>
        <time>2018-08-20T08:30:15Z</time>
      </trkpt>
      <trkpt lat="49.59364" lon="4.95352">
        <ele>205.86</ele>
        <time>2018-08-20T08:30:23Z</time>
      </trkpt>
      <trkpt lat="49.59356" lon="4.95325">
        <ele>206.34</ele>
        <time>2018-08-20T08:30:38Z</time>
      </trkpt>
      <trkpt lat="49.59347" lon="4.95295">
        <ele>206.82</ele>
        <time>2018-08-20T08:30:56Z</time>
      </trkpt>
      <trkpt lat="49.59338" lon="4.95268">
        <ele>208.26</ele>
        <time>2018-08-20T08:31:12Z</time>
      </trkpt>
      <trkpt lat="49.59332" lon="4.95249">
        <ele>207.3</ele>
        <time>2018-08-20T08:31:23Z</time>
      </trkpt>
      <trkpt lat="49.59329" lon="4.9524">
        <ele>207.78</ele>
        <time>2018-08-20T08:31:28Z</time>
      </trkpt>
      <trkpt lat="49.59325" lon="4.95224">
        <ele>207.78</ele>
        <time>2018-08-20T08:31:36Z</time>
      </trkpt>
      <trkpt lat="49.59315" lon="4.95194">
        <ele>208.74</ele>
        <time>2018-08-20T08:31:55Z</time>
      </trkpt>
      <trkpt lat="49.59309" lon="4.95164">
        <ele>209.7</ele>
        <time>2018-08-20T08:32:13Z</time>
      </trkpt>
      <trkpt lat="49.59309" lon="4.95163">
        <ele>209.7</ele>
        <time>2018-08-20T08:32:14Z</time>
      </trkpt>
      <trkpt lat="49.59303" lon="4.95124">
        <ele>209.22</ele>
        <time>2018-08-20T08:32:33Z</time>
      </trkpt>
      <trkpt lat="49.59299" lon="4.95092">
        <ele>210.19</ele>
        <time>2018-08-20T08:32:51Z</time>
      </trkpt>
      <trkpt lat="49.59295" lon="4.95061">
        <ele>211.63</ele>
        <time>2018-08-20T08:33:09Z</time>
      </trkpt>
      <trkpt lat="49.5929" lon="4.95026">
        <ele>213.07</ele>
        <time>2018-08-20T08:33:27Z</time>
      </trkpt>
      <trkpt lat="49.59287" lon="4.94992">
        <ele>213.07</ele>
        <time>2018-08-20T08:33:47Z</time>
      </trkpt>
      <trkpt lat="49.59285" lon="4.94961">
        <ele>213.07</ele>
        <time>2018-08-20T08:34:02Z</time>
      </trkpt>
      <trkpt lat="49.59281" lon="4.94931">
        <ele>213.55</ele>
        <time>2018-08-20T08:34:19Z</time>
      </trkpt>
      <trkpt lat="49.59278" lon="4.94897">
        <ele>214.03</ele>
        <time>2018-08-20T08:34:36Z</time>
      </trkpt>
      <trkpt lat="49.59273" lon="4.94861">
        <ele>214.51</ele>
        <time>2018-08-20T08:34:56Z</time>
      </trkpt>
      <trkpt lat="49.59271" lon="4.94828">
        <ele>214.51</ele>
        <time>2018-08-20T08:35:13Z</time>
      </trkpt>
      <trkpt lat="49.59268" lon="4.94798">
        <ele>215.47</ele>
        <time>2018-08-20T08:35:30Z</time>
      </trkpt>
      <trkpt lat="49.59267" lon="4.94781">
        <ele>215.95</ele>
        <time>2018-08-20T08:35:39Z</time>
      </trkpt>
      <trkpt lat="49.59267" lon="4.94772">
        <ele>215.95</ele>
        <time>2018-08-20T08:35:43Z</time>
      </trkpt>
      <trkpt lat="49.59264" lon="4.94742">
        <ele>216.91</ele>
        <time>2018-08-20T08:36:00Z</time>
      </trkpt>
      <trkpt lat="49.59264" lon="4.94714">
        <ele>216.91</ele>
        <time>2018-08-20T08:36:15Z</time>
      </trkpt>
      <trkpt lat="49.59264" lon="4.9468">
        <ele>216.91</ele>
        <time>2018-08-20T08:36:33Z</time>
      </trkpt>
      <trkpt lat="49.59263" lon="4.94652">
        <ele>218.36</ele>
        <time>2018-08-20T08:36:47Z</time>
      </trkpt>
      <trkpt lat="49.59263" lon="4.94614">
        <ele>218.36</ele>
        <time>2018-08-20T08:37:08Z</time>
      </trkpt>
      <trkpt lat="49.59264" lon="4.94582">
        <ele>219.32</ele>
        <time>2018-08-20T08:37:25Z</time>
      </trkpt>
      <trkpt lat="49.59263" lon="4.94551">
        <ele>218.84</ele>
        <time>2018-08-20T08:37:44Z</time>
      </trkpt>
      <trkpt lat="49.59264" lon="4.94523">
        <ele>218.84</ele>
        <time>2018-08-20T08:37:58Z</time>
      </trkpt>
      <trkpt lat="49.59265" lon="4.94512">
        <ele>218.36</ele>
        <time>2018-08-20T08:38:12Z</time>
      </trkpt>
      <trkpt lat="49.59265" lon="4.94504">
        <ele>218.36</ele>
        <time>2018-08-20T08:38:28Z</time>
      </trkpt>
      <trkpt lat="49.59265" lon="4.94497">
        <ele>217.88</ele>
        <time>2018-08-20T08:38:34Z</time>
      </trkpt>
      <trkpt lat="49.59264" lon="4.94478">
        <ele>217.88</ele>
        <time>2018-08-20T08:38:49Z</time>
      </trkpt>
      <trkpt lat="49.59262" lon="4.94453">
        <ele>219.32</ele>
        <time>2018-08-20T08:39:05Z</time>
      </trkpt>
      <trkpt lat="49.59257" lon="4.94427">
        <ele>219.32</ele>
        <time>2018-08-20T08:39:20Z</time>
      </trkpt>
      <trkpt lat="49.59255" lon="4.94395">
        <ele>217.4</ele>
        <time>2018-08-20T08:39:38Z</time>
      </trkpt>
      <trkpt lat="49.59252" lon="4.94359">
        <ele>221.24</ele>
        <time>2018-08-20T08:39:56Z</time>
      </trkpt>
      <trkpt lat="49.59247" lon="4.94331">
        <ele>224.61</ele>
        <time>2018-08-20T08:40:14Z</time>
      </trkpt>
      <trkpt lat="49.59244" lon="4.943">
        <ele>227.97</ele>
        <time>2018-08-20T08:40:29Z</time>
      </trkpt>
      <trkpt lat="49.59239" lon="4.94277">
        <ele>227.97</ele>
        <time>2018-08-20T08:40:43Z</time>
      </trkpt>
      <trkpt lat="49.59235" lon="4.94253">
        <ele>227.97</ele>
        <time>2018-08-20T08:40:58Z</time>
      </trkpt>
      <trkpt lat="49.59227" lon="4.94224">
        <ele>230.37</ele>
        <time>2018-08-20T08:41:14Z</time>
      </trkpt>
      <trkpt lat="49.59221" lon="4.94207">
        <ele>234.22</ele>
        <time>2018-08-20T08:41:29Z</time>
      </trkpt>
      <trkpt lat="49.59209" lon="4.94187">
        <ele>235.18</ele>
        <time>2018-08-20T08:41:42Z</time>
      </trkpt>
      <trkpt lat="49.59197" lon="4.94171">
        <ele>234.7</ele>
        <time>2018-08-20T08:41:52Z</time>
      </trkpt>
      <trkpt lat="49.59186" lon="4.94146">
        <ele>232.78</ele>
        <time>2018-08-20T08:42:09Z</time>
      </trkpt>
      <trkpt lat="49.59176" lon="4.94119">
        <ele>230.37</ele>
        <time>2018-08-20T08:42:23Z</time>
      </trkpt>
      <trkpt lat="49.59175" lon="4.94109">
        <ele>230.37</ele>
        <time>2018-08-20T08:42:28Z</time>
      </trkpt>
      <trkpt lat="49.59173" lon="4.94104">
        <ele>230.37</ele>
        <time>2018-08-20T08:42:41Z</time>
      </trkpt>
      <trkpt lat="49.59174" lon="4.94109">
        <ele>230.85</ele>
        <time>2018-08-20T08:42:50Z</time>
      </trkpt>
      <trkpt lat="49.59175" lon="4.94115">
        <ele>231.33</ele>
        <time>2018-08-20T08:42:54Z</time>
      </trkpt>
      <trkpt lat="49.5918" lon="4.94124">
        <ele>231.33</ele>
        <time>2018-08-20T08:43:00Z</time>
      </trkpt>
      <trkpt lat="49.59195" lon="4.94152">
        <ele>232.3</ele>
        <time>2018-08-20T08:43:16Z</time>
      </trkpt>
      <trkpt lat="49.5921" lon="4.9417">
        <ele>233.26</ele>
        <time>2018-08-20T08:43:36Z</time>
      </trkpt>
      <trkpt lat="49.59217" lon="4.94181">
        <ele>234.7</ele>
        <time>2018-08-20T08:43:51Z</time>
      </trkpt>
      <trkpt lat="49.5922" lon="4.94187">
        <ele>235.18</ele>
        <time>2018-08-20T08:43:55Z</time>
      </trkpt>
      <trkpt lat="49.59237" lon="4.94206">
        <ele>235.66</ele>
        <time>2018-08-20T08:44:11Z</time>
      </trkpt>
      <trkpt lat="49.59252" lon="4.94231">
        <ele>237.1</ele>
        <time>2018-08-20T08:44:29Z</time>
      </trkpt>
      <trkpt lat="49.59263" lon="4.94252">
        <ele>239.02</ele>
        <time>2018-08-20T08:44:44Z</time>
      </trkpt>
      <trkpt lat="49.59266" lon="4.94254">
        <ele>239.02</ele>
        <time>2018-08-20T08:44:46Z</time>
      </trkpt>
      <trkpt lat="49.59274" lon="4.94227">
        <ele>241.43</ele>
        <time>2018-08-20T08:45:01Z</time>
      </trkpt>
      <trkpt lat="49.59277" lon="4.94218">
        <ele>242.39</ele>
        <time>2018-08-20T08:45:07Z</time>
      </trkpt>
      <trkpt lat="49.5929" lon="4.94212">
        <ele>243.35</ele>
        <time>2018-08-20T08:45:22Z</time>
      </trkpt>
      <trkpt lat="49.59309" lon="4.94205">
        <ele>244.79</ele>
        <time>2018-08-20T08:45:38Z</time>
      </trkpt>
      <trkpt lat="49.59323" lon="4.94203">
        <ele>248.16</ele>
        <time>2018-08-20T08:45:53Z</time>
      </trkpt>
      <trkpt lat="49.59339" lon="4.942">
        <ele>251.04</ele>
        <time>2018-08-20T08:46:08Z</time>
      </trkpt>
      <trkpt lat="49.59354" lon="4.94203">
        <ele>253.44</ele>
        <time>2018-08-20T08:46:22Z</time>
      </trkpt>
      <trkpt lat="49.59371" lon="4.94209">
        <ele>254.89</ele>
        <time>2018-08-20T08:46:37Z</time>
      </trkpt>
      <trkpt lat="49.59386" lon="4.94216">
        <ele>256.81</ele>
        <time>2018-08-20T08:46:52Z</time>
      </trkpt>
      <trkpt lat="49.59403" lon="4.94221">
        <ele>260.65</ele>
        <time>2018-08-20T08:47:07Z</time>
      </trkpt>
      <trkpt lat="49.59413" lon="4.94237">
        <ele>261.14</ele>
        <time>2018-08-20T08:47:21Z</time>
      </trkpt>
      <trkpt lat="49.59417" lon="4.94256">
        <ele>262.58</ele>
        <time>2018-08-20T08:47:34Z</time>
      </trkpt>
      <trkpt lat="49.59417" lon="4.94279">
        <ele>264.5</ele>
        <time>2018-08-20T08:47:48Z</time>
      </trkpt>
      <trkpt lat="49.59421" lon="4.9431">
        <ele>264.02</ele>
        <time>2018-08-20T08:48:04Z</time>
      </trkpt>
      <trkpt lat="49.59424" lon="4.94341">
        <ele>264.98</ele>
        <time>2018-08-20T08:48:21Z</time>
      </trkpt>
      <trkpt lat="49.59424" lon="4.94353">
        <ele>264.5</ele>
        <time>2018-08-20T08:48:28Z</time>
      </trkpt>
      <trkpt lat="49.59425" lon="4.9436">
        <ele>264.02</ele>
        <time>2018-08-20T08:48:32Z</time>
      </trkpt>
      <trkpt lat="49.59427" lon="4.94387">
        <ele>264.02</ele>
        <time>2018-08-20T08:48:48Z</time>
      </trkpt>
      <trkpt lat="49.5943" lon="4.94413">
        <ele>265.46</ele>
        <time>2018-08-20T08:49:04Z</time>
      </trkpt>
      <trkpt lat="49.59438" lon="4.94429">
        <ele>265.94</ele>
        <time>2018-08-20T08:49:16Z</time>
      </trkpt>
      <trkpt lat="49.59454" lon="4.94434">
        <ele>267.38</ele>
        <time>2018-08-20T08:49:31Z</time>
      </trkpt>
      <trkpt lat="49.59472" lon="4.94435">
        <ele>268.83</ele>
        <time>2018-08-20T08:49:46Z</time>
      </trkpt>
      <trkpt lat="49.59485" lon="4.94435">
        <ele>270.75</ele>
        <time>2018-08-20T08:49:58Z</time>
      </trkpt>
      <trkpt lat="49.59502" lon="4.94437">
        <ele>273.15</ele>
        <time>2018-08-20T08:50:13Z</time>
      </trkpt>
      <trkpt lat="49.59517" lon="4.94437">
        <ele>274.59</ele>
        <time>2018-08-20T08:50:27Z</time>
      </trkpt>
      <trkpt lat="49.59533" lon="4.9444">
        <ele>276.52</ele>
        <time>2018-08-20T08:50:42Z</time>
      </trkpt>
      <trkpt lat="49.59549" lon="4.9444">
        <ele>277.96</ele>
        <time>2018-08-20T08:50:56Z</time>
      </trkpt>
      <trkpt lat="49.59566" lon="4.94444">
        <ele>280.36</ele>
        <time>2018-08-20T08:51:10Z</time>
      </trkpt>
      <trkpt lat="49.59582" lon="4.94445">
        <ele>283.73</ele>
        <time>2018-08-20T08:51:25Z</time>
      </trkpt>
      <trkpt lat="49.59599" lon="4.94446">
        <ele>285.17</ele>
        <time>2018-08-20T08:51:41Z</time>
      </trkpt>
      <trkpt lat="49.59615" lon="4.94446">
        <ele>287.09</ele>
        <time>2018-08-20T08:51:55Z</time>
      </trkpt>
      <trkpt lat="49.59634" lon="4.94449">
        <ele>289.49</ele>
        <time>2018-08-20T08:52:12Z</time>
      </trkpt>
      <trkpt lat="49.59652" lon="4.94449">
        <ele>290.94</ele>
        <time>2018-08-20T08:52:27Z</time>
      </trkpt>
      <trkpt lat="49.59668" lon="4.94451">
        <ele>291.42</ele>
        <time>2018-08-20T08:52:41Z</time>
      </trkpt>
      <trkpt lat="49.59686" lon="4.94451">
        <ele>292.86</ele>
        <time>2018-08-20T08:52:56Z</time>
      </trkpt>
      <trkpt lat="49.59706" lon="4.94453">
        <ele>293.34</ele>
        <time>2018-08-20T08:53:12Z</time>
      </trkpt>
      <trkpt lat="49.59727" lon="4.94455">
        <ele>292.38</ele>
        <time>2018-08-20T08:53:30Z</time>
      </trkpt>
      <trkpt lat="49.59745" lon="4.94456">
        <ele>293.82</ele>
        <time>2018-08-20T08:53:45Z</time>
      </trkpt>
      <trkpt lat="49.59765" lon="4.9446">
        <ele>296.7</ele>
        <time>2018-08-20T08:54:00Z</time>
      </trkpt>
      <trkpt lat="49.59783" lon="4.94464">
        <ele>298.63</ele>
        <time>2018-08-20T08:54:15Z</time>
      </trkpt>
      <trkpt lat="49.59798" lon="4.94465">
        <ele>300.55</ele>
        <time>2018-08-20T08:54:29Z</time>
      </trkpt>
      <trkpt lat="49.59817" lon="4.94466">
        <ele>302.47</ele>
        <time>2018-08-20T08:54:45Z</time>
      </trkpt>
      <trkpt lat="49.59839" lon="4.94468">
        <ele>303.43</ele>
        <time>2018-08-20T08:55:02Z</time>
      </trkpt>
      <trkpt lat="49.59858" lon="4.94468">
        <ele>303.91</ele>
        <time>2018-08-20T08:55:18Z</time>
      </trkpt>
      <trkpt lat="49.59879" lon="4.9447">
        <ele>304.39</ele>
        <time>2018-08-20T08:55:36Z</time>
      </trkpt>
      <trkpt lat="49.59898" lon="4.9447">
        <ele>304.88</ele>
        <time>2018-08-20T08:55:51Z</time>
      </trkpt>
      <trkpt lat="49.59922" lon="4.94473">
        <ele>304.88</ele>
        <time>2018-08-20T08:56:09Z</time>
      </trkpt>
      <trkpt lat="49.59939" lon="4.94472">
        <ele>304.88</ele>
        <time>2018-08-20T08:56:25Z</time>
      </trkpt>
      <trkpt lat="49.59961" lon="4.94473">
        <ele>303.43</ele>
        <time>2018-08-20T08:56:43Z</time>
      </trkpt>
      <trkpt lat="49.59983" lon="4.94475">
        <ele>302.47</ele>
        <time>2018-08-20T08:57:03Z</time>
      </trkpt>
      <trkpt lat="49.60002" lon="4.94479">
        <ele>299.11</ele>
        <time>2018-08-20T08:57:19Z</time>
      </trkpt>
      <trkpt lat="49.6002" lon="4.94486">
        <ele>296.22</ele>
        <time>2018-08-20T08:57:35Z</time>
      </trkpt>
      <trkpt lat="49.60028" lon="4.94486">
        <ele>294.78</ele>
        <time>2018-08-20T08:57:42Z</time>
      </trkpt>
      <trkpt lat="49.60043" lon="4.94488">
        <ele>291.42</ele>
        <time>2018-08-20T08:57:57Z</time>
      </trkpt>
      <trkpt lat="49.60062" lon="4.94492">
        <ele>289.01</ele>
        <time>2018-08-20T08:58:14Z</time>
      </trkpt>
      <trkpt lat="49.60076" lon="4.94494">
        <ele>286.61</ele>
        <time>2018-08-20T08:58:29Z</time>
      </trkpt>
      <trkpt lat="49.60097" lon="4.94495">
        <ele>285.65</ele>
        <time>2018-08-20T08:58:48Z</time>
      </trkpt>
      <trkpt lat="49.60115" lon="4.94498">
        <ele>283.73</ele>
        <time>2018-08-20T08:59:06Z</time>
      </trkpt>
      <trkpt lat="49.60134" lon="4.94503">
        <ele>283.73</ele>
        <time>2018-08-20T08:59:23Z</time>
      </trkpt>
      <trkpt lat="49.60151" lon="4.94511">
        <ele>284.21</ele>
        <time>2018-08-20T08:59:39Z</time>
      </trkpt>
      <trkpt lat="49.60154" lon="4.94513">
        <ele>284.21</ele>
        <time>2018-08-20T08:59:42Z</time>
      </trkpt>
      <trkpt lat="49.60171" lon="4.94525">
        <ele>283.25</ele>
        <time>2018-08-20T08:59:59Z</time>
      </trkpt>
      <trkpt lat="49.60177" lon="4.94533">
        <ele>282.77</ele>
        <time>2018-08-20T09:00:05Z</time>
      </trkpt>
      <trkpt lat="49.60183" lon="4.94541">
        <ele>282.77</ele>
        <time>2018-08-20T09:00:18Z</time>
      </trkpt>
      <trkpt lat="49.60184" lon="4.94543">
        <ele>282.28</ele>
        <time>2018-08-20T09:00:20Z</time>
      </trkpt>
      <trkpt lat="49.60192" lon="4.94547">
        <ele>281.32</ele>
        <time>2018-08-20T09:00:26Z</time>
      </trkpt>
      <trkpt lat="49.60209" lon="4.94539">
        <ele>278.44</ele>
        <time>2018-08-20T09:00:39Z</time>
      </trkpt>
      <trkpt lat="49.6023" lon="4.94525">
        <ele>275.07</ele>
        <time>2018-08-20T09:00:56Z</time>
      </trkpt>
      <trkpt lat="49.60251" lon="4.94508">
        <ele>276.52</ele>
        <time>2018-08-20T09:01:15Z</time>
      </trkpt>
      <trkpt lat="49.60274" lon="4.94492">
        <ele>279.4</ele>
        <time>2018-08-20T09:01:36Z</time>
      </trkpt>
      <trkpt lat="49.60295" lon="4.94482">
        <ele>282.28</ele>
        <time>2018-08-20T09:01:55Z</time>
      </trkpt>
      <trkpt lat="49.60313" lon="4.94473">
        <ele>285.65</ele>
        <time>2018-08-20T09:02:12Z</time>
      </trkpt>
      <trkpt lat="49.60335" lon="4.94463">
        <ele>286.61</ele>
        <time>2018-08-20T09:02:31Z</time>
      </trkpt>
      <trkpt lat="49.60355" lon="4.94452">
        <ele>287.57</ele>
        <time>2018-08-20T09:02:49Z</time>
      </trkpt>
      <trkpt lat="49.60375" lon="4.94441">
        <ele>288.53</ele>
        <time>2018-08-20T09:03:08Z</time>
      </trkpt>
      <trkpt lat="49.60392" lon="4.94424">
        <ele>289.97</ele>
        <time>2018-08-20T09:03:25Z</time>
      </trkpt>
      <trkpt lat="49.60408" lon="4.94398">
        <ele>291.42</ele>
        <time>2018-08-20T09:03:44Z</time>
      </trkpt>
      <trkpt lat="49.60421" lon="4.94375">
        <ele>292.86</ele>
        <time>2018-08-20T09:04:01Z</time>
      </trkpt>
      <trkpt lat="49.60435" lon="4.94351">
        <ele>294.3</ele>
        <time>2018-08-20T09:04:19Z</time>
      </trkpt>
      <trkpt lat="49.60447" lon="4.94327">
        <ele>294.78</ele>
        <time>2018-08-20T09:04:36Z</time>
      </trkpt>
      <trkpt lat="49.60462" lon="4.94302">
        <ele>296.22</ele>
        <time>2018-08-20T09:04:55Z</time>
      </trkpt>
      <trkpt lat="49.60475" lon="4.94282">
        <ele>298.63</ele>
        <time>2018-08-20T09:05:13Z</time>
      </trkpt>
      <trkpt lat="49.60488" lon="4.94258">
        <ele>300.07</ele>
        <time>2018-08-20T09:05:31Z</time>
      </trkpt>
      <trkpt lat="49.60489" lon="4.94256">
        <ele>300.07</ele>
        <time>2018-08-20T09:05:32Z</time>
      </trkpt>
      <trkpt lat="49.60501" lon="4.94237">
        <ele>301.03</ele>
        <time>2018-08-20T09:05:46Z</time>
      </trkpt>
      <trkpt lat="49.60505" lon="4.9423">
        <ele>301.03</ele>
        <time>2018-08-20T09:05:51Z</time>
      </trkpt>
      <trkpt lat="49.6051" lon="4.94223">
        <ele>301.03</ele>
        <time>2018-08-20T09:06:07Z</time>
      </trkpt>
      <trkpt lat="49.60511" lon="4.94223">
        <ele>301.03</ele>
        <time>2018-08-20T09:06:26Z</time>
      </trkpt>
      <trkpt lat="49.60511" lon="4.94222">
        <ele>300.55</ele>
        <time>2018-08-20T09:06:44Z</time>
      </trkpt>
      <trkpt lat="49.60511" lon="4.94223">
        <ele>299.59</ele>
        <time>2018-08-20T09:07:10Z</time>
      </trkpt>
      <trkpt lat="49.60511" lon="4.94223">
        <ele>298.63</ele>
        <time>2018-08-20T09:07:32Z</time>
      </trkpt>
      <trkpt lat="49.60511" lon="4.94223">
        <ele>298.63</ele>
        <time>2018-08-20T09:07:48Z</time>
      </trkpt>
      <trkpt lat="49.60511" lon="4.94223">
        <ele>298.63</ele>
        <time>2018-08-20T09:08:14Z</time>
      </trkpt>
      <trkpt lat="49.6051" lon="4.94222">
        <ele>298.15</ele>
        <time>2018-08-20T09:08:37Z</time>
      </trkpt>
      <trkpt lat="49.6051" lon="4.94222">
        <ele>297.67</ele>
        <time>2018-08-20T09:08:51Z</time>
      </trkpt>
      <trkpt lat="49.6051" lon="4.94221">
        <ele>297.67</ele>
        <time>2018-08-20T09:09:05Z</time>
      </trkpt>
      <trkpt lat="49.6051" lon="4.94221">
        <ele>297.67</ele>
        <time>2018-08-20T09:09:09Z</time>
      </trkpt>
      <trkpt lat="49.60519" lon="4.94198">
        <ele>299.11</ele>
        <time>2018-08-20T09:09:25Z</time>
      </trkpt>
      <trkpt lat="49.60531" lon="4.94166">
        <ele>300.07</ele>
        <time>2018-08-20T09:09:45Z</time>
      </trkpt>
      <trkpt lat="49.60542" lon="4.94137">
        <ele>300.07</ele>
        <time>2018-08-20T09:10:03Z</time>
      </trkpt>
      <trkpt lat="49.60553" lon="4.94109">
        <ele>300.55</ele>
        <time>2018-08-20T09:10:21Z</time>
      </trkpt>
      <trkpt lat="49.60564" lon="4.94084">
        <ele>301.99</ele>
        <time>2018-08-20T09:10:38Z</time>
      </trkpt>
      <trkpt lat="49.60574" lon="4.94061">
        <ele>302.95</ele>
        <time>2018-08-20T09:10:53Z</time>
      </trkpt>
      <trkpt lat="49.60583" lon="4.94036">
        <ele>305.36</ele>
        <time>2018-08-20T09:11:10Z</time>
      </trkpt>
      <trkpt lat="49.60594" lon="4.94009">
        <ele>306.32</ele>
        <time>2018-08-20T09:11:28Z</time>
      </trkpt>
      <trkpt lat="49.60601" lon="4.93987">
        <ele>307.28</ele>
        <time>2018-08-20T09:11:43Z</time>
      </trkpt>
      <trkpt lat="49.60608" lon="4.93961">
        <ele>308.72</ele>
        <time>2018-08-20T09:11:59Z</time>
      </trkpt>
      <trkpt lat="49.60616" lon="4.93932">
        <ele>310.16</ele>
        <time>2018-08-20T09:12:16Z</time>
      </trkpt>
      <trkpt lat="49.60621" lon="4.93903">
        <ele>310.16</ele>
        <time>2018-08-20T09:12:32Z</time>
      </trkpt>
      <trkpt lat="49.60626" lon="4.93878">
        <ele>309.68</ele>
        <time>2018-08-20T09:12:47Z</time>
      </trkpt>
      <trkpt lat="49.60628" lon="4.93871">
        <ele>309.68</ele>
        <time>2018-08-20T09:12:51Z</time>
      </trkpt>
      <trkpt lat="49.60635" lon="4.93832">
        <ele>308.72</ele>
        <time>2018-08-20T09:13:13Z</time>
      </trkpt>
      <trkpt lat="49.6064" lon="4.93795">
        <ele>306.8</ele>
        <time>2018-08-20T09:13:34Z</time>
      </trkpt>
      <trkpt lat="49.60643" lon="4.93769">
        <ele>304.88</ele>
        <time>2018-08-20T09:13:50Z</time>
      </trkpt>
      <trkpt lat="49.60647" lon="4.93741">
        <ele>302.47</ele>
        <time>2018-08-20T09:14:06Z</time>
      </trkpt>
      <trkpt lat="49.60647" lon="4.93713">
        <ele>301.03</ele>
        <time>2018-08-20T09:14:24Z</time>
      </trkpt>
      <trkpt lat="49.60649" lon="4.93676">
        <ele>300.55</ele>
        <time>2018-08-20T09:14:43Z</time>
      </trkpt>
      <trkpt lat="49.60649" lon="4.93663">
        <ele>299.59</ele>
        <time>2018-08-20T09:14:52Z</time>
      </trkpt>
      <trkpt lat="49.60651" lon="4.93628">
        <ele>297.18</ele>
        <time>2018-08-20T09:15:10Z</time>
      </trkpt>
      <trkpt lat="49.60659" lon="4.93605">
        <ele>296.7</ele>
        <time>2018-08-20T09:15:25Z</time>
      </trkpt>
      <trkpt lat="49.60668" lon="4.93586">
        <ele>299.59</ele>
        <time>2018-08-20T09:15:39Z</time>
      </trkpt>
      <trkpt lat="49.60679" lon="4.93554">
        <ele>299.59</ele>
        <time>2018-08-20T09:15:58Z</time>
      </trkpt>
      <trkpt lat="49.60696" lon="4.93519">
        <ele>300.07</ele>
        <time>2018-08-20T09:16:21Z</time>
      </trkpt>
      <trkpt lat="49.6071" lon="4.93482">
        <ele>298.15</ele>
        <time>2018-08-20T09:16:43Z</time>
      </trkpt>
      <trkpt lat="49.6072" lon="4.93453">
        <ele>295.26</ele>
        <time>2018-08-20T09:17:02Z</time>
      </trkpt>
      <trkpt lat="49.60731" lon="4.93426">
        <ele>293.82</ele>
        <time>2018-08-20T09:17:20Z</time>
      </trkpt>
      <trkpt lat="49.6074" lon="4.93402">
        <ele>294.3</ele>
        <time>2018-08-20T09:17:39Z</time>
      </trkpt>
      <trkpt lat="49.60741" lon="4.93389">
        <ele>293.34</ele>
        <time>2018-08-20T09:17:57Z</time>
      </trkpt>
      <trkpt lat="49.60746" lon="4.93386">
        <ele>292.86</ele>
        <time>2018-08-20T09:18:08Z</time>
      </trkpt>
      <trkpt lat="49.60748" lon="4.93386">
        <ele>292.86</ele>
        <time>2018-08-20T09:18:10Z</time>
      </trkpt>
      <trkpt lat="49.60761" lon="4.93386">
        <ele>292.86</ele>
        <time>2018-08-20T09:18:27Z</time>
      </trkpt>
      <trkpt lat="49.60763" lon="4.93387">
        <ele>292.38</ele>
        <time>2018-08-20T09:18:29Z</time>
      </trkpt>
      <trkpt lat="49.6078" lon="4.93393">
        <ele>291.9</ele>
        <time>2018-08-20T09:18:45Z</time>
      </trkpt>
      <trkpt lat="49.60804" lon="4.93401">
        <ele>291.9</ele>
        <time>2018-08-20T09:19:04Z</time>
      </trkpt>
      <trkpt lat="49.6082" lon="4.93405">
        <ele>295.26</ele>
        <time>2018-08-20T09:19:20Z</time>
      </trkpt>
      <trkpt lat="49.60834" lon="4.93416">
        <ele>297.18</ele>
        <time>2018-08-20T09:19:34Z</time>
      </trkpt>
      <trkpt lat="49.60849" lon="4.93419">
        <ele>299.11</ele>
        <time>2018-08-20T09:19:50Z</time>
      </trkpt>
      <trkpt lat="49.60858" lon="4.93418">
        <ele>299.59</ele>
        <time>2018-08-20T09:20:06Z</time>
      </trkpt>
      <trkpt lat="49.60871" lon="4.93411">
        <ele>298.15</ele>
        <time>2018-08-20T09:20:24Z</time>
      </trkpt>
      <trkpt lat="49.60905" lon="4.93388">
        <ele>297.67</ele>
        <time>2018-08-20T09:20:42Z</time>
      </trkpt>
      <trkpt lat="49.60932" lon="4.9337">
        <ele>298.63</ele>
        <time>2018-08-20T09:21:03Z</time>
      </trkpt>
      <trkpt lat="49.60949" lon="4.93357">
        <ele>298.15</ele>
        <time>2018-08-20T09:21:23Z</time>
      </trkpt>
      <trkpt lat="49.6097" lon="4.93343">
        <ele>299.11</ele>
        <time>2018-08-20T09:21:41Z</time>
      </trkpt>
      <trkpt lat="49.60991" lon="4.93342">
        <ele>303.43</ele>
        <time>2018-08-20T09:22:01Z</time>
      </trkpt>
      <trkpt lat="49.60996" lon="4.93343">
        <ele>303.91</ele>
        <time>2018-08-20T09:22:05Z</time>
      </trkpt>
      <trkpt lat="49.61013" lon="4.93352">
        <ele>304.88</ele>
        <time>2018-08-20T09:22:23Z</time>
      </trkpt>
      <trkpt lat="49.61031" lon="4.93363">
        <ele>304.39</ele>
        <time>2018-08-20T09:22:41Z</time>
      </trkpt>
      <trkpt lat="49.6105" lon="4.93377">
        <ele>305.84</ele>
        <time>2018-08-20T09:22:59Z</time>
      </trkpt>
      <trkpt lat="49.61078" lon="4.93378">
        <ele>307.28</ele>
        <time>2018-08-20T09:23:20Z</time>
      </trkpt>
      <trkpt lat="49.61091" lon="4.93378">
        <ele>306.8</ele>
        <time>2018-08-20T09:23:38Z</time>
      </trkpt>
      <trkpt lat="49.61105" lon="4.9337">
        <ele>302.95</ele>
        <time>2018-08-20T09:23:53Z</time>
      </trkpt>
      <trkpt lat="49.61117" lon="4.93338">
        <ele>299.11</ele>
        <time>2018-08-20T09:24:11Z</time>
      </trkpt>
      <trkpt lat="49.61119" lon="4.93318">
        <ele>298.63</ele>
        <time>2018-08-20T09:24:26Z</time>
      </trkpt>
      <trkpt lat="49.61115" lon="4.93284">
        <ele>300.07</ele>
        <time>2018-08-20T09:24:44Z</time>
      </trkpt>
      <trkpt lat="49.61111" lon="4.93263">
        <ele>296.7</ele>
        <time>2018-08-20T09:25:01Z</time>
      </trkpt>
      <trkpt lat="49.61112" lon="4.93249">
        <ele>292.86</ele>
        <time>2018-08-20T09:25:23Z</time>
      </trkpt>
      <trkpt lat="49.61115" lon="4.9323">
        <ele>290.46</ele>
        <time>2018-08-20T09:25:40Z</time>
      </trkpt>
      <trkpt lat="49.61114" lon="4.93209">
        <ele>287.57</ele>
        <time>2018-08-20T09:25:58Z</time>
      </trkpt>
      <trkpt lat="49.61112" lon="4.93188">
        <ele>280.84</ele>
        <time>2018-08-20T09:26:11Z</time>
      </trkpt>
      <trkpt lat="49.61112" lon="4.93174">
        <ele>277.48</ele>
        <time>2018-08-20T09:26:25Z</time>
      </trkpt>
      <trkpt lat="49.6111" lon="4.9317">
        <ele>275.56</ele>
        <time>2018-08-20T09:26:42Z</time>
      </trkpt>
      <trkpt lat="49.61109" lon="4.93167">
        <ele>274.11</ele>
        <time>2018-08-20T09:27:01Z</time>
      </trkpt>
      <trkpt lat="49.61109" lon="4.93165">
        <ele>274.11</ele>
        <time>2018-08-20T09:27:23Z</time>
      </trkpt>
      <trkpt lat="49.61111" lon="4.93131">
        <ele>271.71</ele>
        <time>2018-08-20T09:27:44Z</time>
      </trkpt>
      <trkpt lat="49.6112" lon="4.93099">
        <ele>266.9</ele>
        <time>2018-08-20T09:28:00Z</time>
      </trkpt>
      <trkpt lat="49.61125" lon="4.93082">
        <ele>264.02</ele>
        <time>2018-08-20T09:28:17Z</time>
      </trkpt>
      <trkpt lat="49.61125" lon="4.93065">
        <ele>263.54</ele>
        <time>2018-08-20T09:28:33Z</time>
      </trkpt>
      <trkpt lat="49.6113" lon="4.93037">
        <ele>258.25</ele>
        <time>2018-08-20T09:28:53Z</time>
      </trkpt>
      <trkpt lat="49.61134" lon="4.93021">
        <ele>255.85</ele>
        <time>2018-08-20T09:29:10Z</time>
      </trkpt>
      <trkpt lat="49.61138" lon="4.93001">
        <ele>251.04</ele>
        <time>2018-08-20T09:29:28Z</time>
      </trkpt>
      <trkpt lat="49.61139" lon="4.92989">
        <ele>250.56</ele>
        <time>2018-08-20T09:29:43Z</time>
      </trkpt>
      <trkpt lat="49.61141" lon="4.92978">
        <ele>251.52</ele>
        <time>2018-08-20T09:29:59Z</time>
      </trkpt>
      <trkpt lat="49.61146" lon="4.92955">
        <ele>253.44</ele>
        <time>2018-08-20T09:30:17Z</time>
      </trkpt>
      <trkpt lat="49.61152" lon="4.92929">
        <ele>252.48</ele>
        <time>2018-08-20T09:30:36Z</time>
      </trkpt>
      <trkpt lat="49.61161" lon="4.92925">
        <ele>248.64</ele>
        <time>2018-08-20T09:30:53Z</time>
      </trkpt>
      <trkpt lat="49.61165" lon="4.92908">
        <ele>246.72</ele>
        <time>2018-08-20T09:31:03Z</time>
      </trkpt>
      <trkpt lat="49.6117" lon="4.92895">
        <ele>244.79</ele>
        <time>2018-08-20T09:31:09Z</time>
      </trkpt>
      <trkpt lat="49.61185" lon="4.92865">
        <ele>236.62</ele>
        <time>2018-08-20T09:31:30Z</time>
      </trkpt>
      <trkpt lat="49.61195" lon="4.92848">
        <ele>229.89</ele>
        <time>2018-08-20T09:31:45Z</time>
      </trkpt>
      <trkpt lat="49.61204" lon="4.9283">
        <ele>224.12</ele>
        <time>2018-08-20T09:32:02Z</time>
      </trkpt>
      <trkpt lat="49.61211" lon="4.92809">
        <ele>220.28</ele>
        <time>2018-08-20T09:32:18Z</time>
      </trkpt>
      <trkpt lat="49.61216" lon="4.92798">
        <ele>219.8</ele>
        <time>2018-08-20T09:32:27Z</time>
      </trkpt>
      <trkpt lat="49.61222" lon="4.9278">
        <ele>219.32</ele>
        <time>2018-08-20T09:32:44Z</time>
      </trkpt>
      <trkpt lat="49.61229" lon="4.92766">
        <ele>220.76</ele>
        <time>2018-08-20T09:33:00Z</time>
      </trkpt>
      <trkpt lat="49.61231" lon="4.92761">
        <ele>221.72</ele>
        <time>2018-08-20T09:33:06Z</time>
      </trkpt>
      <trkpt lat="49.6123" lon="4.92747">
        <ele>222.68</ele>
        <time>2018-08-20T09:33:17Z</time>
      </trkpt>
      <trkpt lat="49.61228" lon="4.9273">
        <ele>223.64</ele>
        <time>2018-08-20T09:33:31Z</time>
      </trkpt>
      <trkpt lat="49.61228" lon="4.9271">
        <ele>224.61</ele>
        <time>2018-08-20T09:33:44Z</time>
      </trkpt>
      <trkpt lat="49.61223" lon="4.92685">
        <ele>226.53</ele>
        <time>2018-08-20T09:33:59Z</time>
      </trkpt>
      <trkpt lat="49.6122" lon="4.92679">
        <ele>227.49</ele>
        <time>2018-08-20T09:34:05Z</time>
      </trkpt>
      <trkpt lat="49.61216" lon="4.92669">
        <ele>228.45</ele>
        <time>2018-08-20T09:34:19Z</time>
      </trkpt>
      <trkpt lat="49.61216" lon="4.9268">
        <ele>227.97</ele>
        <time>2018-08-20T09:34:30Z</time>
      </trkpt>
      <trkpt lat="49.61218" lon="4.927">
        <ele>229.41</ele>
        <time>2018-08-20T09:34:43Z</time>
      </trkpt>
      <trkpt lat="49.61227" lon="4.92721">
        <ele>230.37</ele>
        <time>2018-08-20T09:34:58Z</time>
      </trkpt>
      <trkpt lat="49.61238" lon="4.92744">
        <ele>233.26</ele>
        <time>2018-08-20T09:35:16Z</time>
      </trkpt>
      <trkpt lat="49.61251" lon="4.92771">
        <ele>239.02</ele>
        <time>2018-08-20T09:35:36Z</time>
      </trkpt>
      <trkpt lat="49.61262" lon="4.92793">
        <ele>239.99</ele>
        <time>2018-08-20T09:35:52Z</time>
      </trkpt>
      <trkpt lat="49.61274" lon="4.92817">
        <ele>238.06</ele>
        <time>2018-08-20T09:36:08Z</time>
      </trkpt>
      <trkpt lat="49.61289" lon="4.92838">
        <ele>236.62</ele>
        <time>2018-08-20T09:36:26Z</time>
      </trkpt>
      <trkpt lat="49.61305" lon="4.92856">
        <ele>235.18</ele>
        <time>2018-08-20T09:36:42Z</time>
      </trkpt>
      <trkpt lat="49.61321" lon="4.92876">
        <ele>231.81</ele>
        <time>2018-08-20T09:36:59Z</time>
      </trkpt>
      <trkpt lat="49.61337" lon="4.92891">
        <ele>227.49</ele>
        <time>2018-08-20T09:37:17Z</time>
      </trkpt>
      <trkpt lat="49.61349" lon="4.92901">
        <ele>227.01</ele>
        <time>2018-08-20T09:37:31Z</time>
      </trkpt>
      <trkpt lat="49.61366" lon="4.92915">
        <ele>227.49</ele>
        <time>2018-08-20T09:37:43Z</time>
      </trkpt>
      <trkpt lat="49.61379" lon="4.92926">
        <ele>226.53</ele>
        <time>2018-08-20T09:37:58Z</time>
      </trkpt>
      <trkpt lat="49.61393" lon="4.92941">
        <ele>225.57</ele>
        <time>2018-08-20T09:38:12Z</time>
      </trkpt>
      <trkpt lat="49.61406" lon="4.92955">
        <ele>225.09</ele>
        <time>2018-08-20T09:38:26Z</time>
      </trkpt>
      <trkpt lat="49.61409" lon="4.9296">
        <ele>225.09</ele>
        <time>2018-08-20T09:38:29Z</time>
      </trkpt>
      <trkpt lat="49.61423" lon="4.92978">
        <ele>223.16</ele>
        <time>2018-08-20T09:38:43Z</time>
      </trkpt>
      <trkpt lat="49.61437" lon="4.9299">
        <ele>222.2</ele>
        <time>2018-08-20T09:38:58Z</time>
      </trkpt>
      <trkpt lat="49.61454" lon="4.93">
        <ele>217.4</ele>
        <time>2018-08-20T09:39:13Z</time>
      </trkpt>
      <trkpt lat="49.61475" lon="4.93016">
        <ele>216.43</ele>
        <time>2018-08-20T09:39:34Z</time>
      </trkpt>
      <trkpt lat="49.61494" lon="4.93033">
        <ele>216.91</ele>
        <time>2018-08-20T09:39:53Z</time>
      </trkpt>
      <trkpt lat="49.61509" lon="4.93041">
        <ele>214.99</ele>
        <time>2018-08-20T09:40:09Z</time>
      </trkpt>
      <trkpt lat="49.61511" lon="4.93043">
        <ele>214.51</ele>
        <time>2018-08-20T09:40:15Z</time>
      </trkpt>
      <trkpt lat="49.61524" lon="4.93055">
        <ele>214.99</ele>
        <time>2018-08-20T09:40:29Z</time>
      </trkpt>
      <trkpt lat="49.61541" lon="4.93062">
        <ele>215.95</ele>
        <time>2018-08-20T09:40:43Z</time>
      </trkpt>
      <trkpt lat="49.61562" lon="4.93062">
        <ele>214.99</ele>
        <time>2018-08-20T09:41:02Z</time>
      </trkpt>
      <trkpt lat="49.6158" lon="4.93066">
        <ele>214.03</ele>
        <time>2018-08-20T09:41:18Z</time>
      </trkpt>
      <trkpt lat="49.616" lon="4.93069">
        <ele>214.03</ele>
        <time>2018-08-20T09:41:35Z</time>
      </trkpt>
      <trkpt lat="49.61619" lon="4.93073">
        <ele>214.99</ele>
        <time>2018-08-20T09:41:53Z</time>
      </trkpt>
      <trkpt lat="49.61637" lon="4.93079">
        <ele>215.95</ele>
        <time>2018-08-20T09:42:09Z</time>
      </trkpt>
      <trkpt lat="49.6166" lon="4.93088">
        <ele>215.95</ele>
        <time>2018-08-20T09:42:28Z</time>
      </trkpt>
      <trkpt lat="49.61667" lon="4.93093">
        <ele>216.91</ele>
        <time>2018-08-20T09:42:36Z</time>
      </trkpt>
      <trkpt lat="49.61671" lon="4.93098">
        <ele>217.4</ele>
        <time>2018-08-20T09:42:40Z</time>
      </trkpt>
      <trkpt lat="49.61689" lon="4.93121">
        <ele>216.91</ele>
        <time>2018-08-20T09:42:58Z</time>
      </trkpt>
      <trkpt lat="49.61704" lon="4.93148">
        <ele>216.43</ele>
        <time>2018-08-20T09:43:17Z</time>
      </trkpt>
      <trkpt lat="49.61717" lon="4.93172">
        <ele>217.4</ele>
        <time>2018-08-20T09:43:34Z</time>
      </trkpt>
      <trkpt lat="49.61728" lon="4.93196">
        <ele>215.95</ele>
        <time>2018-08-20T09:43:51Z</time>
      </trkpt>
      <trkpt lat="49.6174" lon="4.93222">
        <ele>214.51</ele>
        <time>2018-08-20T09:44:06Z</time>
      </trkpt>
      <trkpt lat="49.61751" lon="4.93249">
        <ele>216.43</ele>
        <time>2018-08-20T09:44:24Z</time>
      </trkpt>
      <trkpt lat="49.61755" lon="4.93263">
        <ele>215.47</ele>
        <time>2018-08-20T09:44:32Z</time>
      </trkpt>
      <trkpt lat="49.61765" lon="4.93293">
        <ele>215.95</ele>
        <time>2018-08-20T09:44:50Z</time>
      </trkpt>
      <trkpt lat="49.61774" lon="4.93322">
        <ele>216.91</ele>
        <time>2018-08-20T09:45:09Z</time>
      </trkpt>
      <trkpt lat="49.61781" lon="4.93353">
        <ele>217.4</ele>
        <time>2018-08-20T09:45:26Z</time>
      </trkpt>
      <trkpt lat="49.61789" lon="4.93383">
        <ele>218.84</ele>
        <time>2018-08-20T09:45:43Z</time>
      </trkpt>
      <trkpt lat="49.61795" lon="4.93411">
        <ele>215.95</ele>
        <time>2018-08-20T09:46:02Z</time>
      </trkpt>
      <trkpt lat="49.61797" lon="4.93426">
        <ele>215.47</ele>
        <time>2018-08-20T09:46:10Z</time>
      </trkpt>
      <trkpt lat="49.61799" lon="4.93442">
        <ele>214.51</ele>
        <time>2018-08-20T09:46:18Z</time>
      </trkpt>
      <trkpt lat="49.61803" lon="4.93467">
        <ele>213.55</ele>
        <time>2018-08-20T09:46:36Z</time>
      </trkpt>
      <trkpt lat="49.61804" lon="4.93478">
        <ele>214.03</ele>
        <time>2018-08-20T09:46:43Z</time>
      </trkpt>
      <trkpt lat="49.61805" lon="4.93489">
        <ele>214.99</ele>
        <time>2018-08-20T09:46:49Z</time>
      </trkpt>
      <trkpt lat="49.61808" lon="4.93526">
        <ele>210.19</ele>
        <time>2018-08-20T09:47:08Z</time>
      </trkpt>
      <trkpt lat="49.61812" lon="4.93557">
        <ele>209.7</ele>
        <time>2018-08-20T09:47:26Z</time>
      </trkpt>
      <trkpt lat="49.61817" lon="4.93593">
        <ele>210.19</ele>
        <time>2018-08-20T09:47:47Z</time>
      </trkpt>
      <trkpt lat="49.6182" lon="4.93607">
        <ele>208.74</ele>
        <time>2018-08-20T09:47:54Z</time>
      </trkpt>
      <trkpt lat="49.6182" lon="4.93615">
        <ele>208.26</ele>
        <time>2018-08-20T09:47:58Z</time>
      </trkpt>
      <trkpt lat="49.61827" lon="4.93645">
        <ele>205.38</ele>
        <time>2018-08-20T09:48:15Z</time>
      </trkpt>
      <trkpt lat="49.61833" lon="4.93669">
        <ele>204.9</ele>
        <time>2018-08-20T09:48:29Z</time>
      </trkpt>
      <trkpt lat="49.61839" lon="4.9369">
        <ele>204.9</ele>
        <time>2018-08-20T09:48:45Z</time>
      </trkpt>
      <trkpt lat="49.61844" lon="4.93722">
        <ele>205.86</ele>
        <time>2018-08-20T09:49:04Z</time>
      </trkpt>
      <trkpt lat="49.61849" lon="4.93744">
        <ele>207.3</ele>
        <time>2018-08-20T09:49:18Z</time>
      </trkpt>
      <trkpt lat="49.61851" lon="4.9375">
        <ele>207.78</ele>
        <time>2018-08-20T09:49:22Z</time>
      </trkpt>
      <trkpt lat="49.61853" lon="4.93763">
        <ele>207.3</ele>
        <time>2018-08-20T09:49:29Z</time>
      </trkpt>
      <trkpt lat="49.61856" lon="4.93798">
        <ele>207.3</ele>
        <time>2018-08-20T09:49:50Z</time>
      </trkpt>
      <trkpt lat="49.61854" lon="4.93825">
        <ele>204.42</ele>
        <time>2018-08-20T09:50:07Z</time>
      </trkpt>
      <trkpt lat="49.61843" lon="4.9385">
        <ele>203.94</ele>
        <time>2018-08-20T09:50:24Z</time>
      </trkpt>
      <trkpt lat="49.6184" lon="4.93854">
        <ele>203.94</ele>
        <time>2018-08-20T09:50:36Z</time>
      </trkpt>
      <trkpt lat="49.61836" lon="4.93858">
        <ele>204.9</ele>
        <time>2018-08-20T09:50:47Z</time>
      </trkpt>
      <trkpt lat="49.61834" lon="4.93892">
        <ele>205.86</ele>
        <time>2018-08-20T09:51:06Z</time>
      </trkpt>
      <trkpt lat="49.61834" lon="4.9392">
        <ele>204.9</ele>
        <time>2018-08-20T09:51:19Z</time>
      </trkpt>
      <trkpt lat="49.61835" lon="4.93945">
        <ele>203.94</ele>
        <time>2018-08-20T09:51:34Z</time>
      </trkpt>
      <trkpt lat="49.61836" lon="4.93977">
        <ele>204.9</ele>
        <time>2018-08-20T09:51:51Z</time>
      </trkpt>
      <trkpt lat="49.61838" lon="4.94002">
        <ele>202.49</ele>
        <time>2018-08-20T09:52:07Z</time>
      </trkpt>
      <trkpt lat="49.61846" lon="4.94036">
        <ele>198.65</ele>
        <time>2018-08-20T09:52:27Z</time>
      </trkpt>
      <trkpt lat="49.61854" lon="4.94056">
        <ele>197.69</ele>
        <time>2018-08-20T09:52:44Z</time>
      </trkpt>
      <trkpt lat="49.61861" lon="4.94089">
        <ele>199.13</ele>
        <time>2018-08-20T09:53:01Z</time>
      </trkpt>
      <trkpt lat="49.61871" lon="4.94121">
        <ele>199.13</ele>
        <time>2018-08-20T09:53:21Z</time>
      </trkpt>
      <trkpt lat="49.6188" lon="4.94146">
        <ele>197.21</ele>
        <time>2018-08-20T09:53:39Z</time>
      </trkpt>
      <trkpt lat="49.61888" lon="4.94175">
        <ele>195.28</ele>
        <time>2018-08-20T09:53:59Z</time>
      </trkpt>
      <trkpt lat="49.61888" lon="4.94178">
        <ele>195.77</ele>
        <time>2018-08-20T09:54:01Z</time>
      </trkpt>
      <trkpt lat="49.61891" lon="4.94187">
        <ele>195.28</ele>
        <time>2018-08-20T09:54:07Z</time>
      </trkpt>
      <trkpt lat="49.61892" lon="4.94197">
        <ele>195.28</ele>
        <time>2018-08-20T09:54:12Z</time>
      </trkpt>
      <trkpt lat="49.61899" lon="4.94222">
        <ele>194.8</ele>
        <time>2018-08-20T09:54:27Z</time>
      </trkpt>
      <trkpt lat="49.61907" lon="4.94254">
        <ele>194.8</ele>
        <time>2018-08-20T09:54:44Z</time>
      </trkpt>
      <trkpt lat="49.61916" lon="4.94284">
        <ele>196.25</ele>
        <time>2018-08-20T09:55:03Z</time>
      </trkpt>
      <trkpt lat="49.61921" lon="4.94318">
        <ele>199.61</ele>
        <time>2018-08-20T09:55:22Z</time>
      </trkpt>
      <trkpt lat="49.61929" lon="4.94343">
        <ele>202.49</ele>
        <time>2018-08-20T09:55:37Z</time>
      </trkpt>
      <trkpt lat="49.61945" lon="4.94375">
        <ele>203.46</ele>
        <time>2018-08-20T09:55:58Z</time>
      </trkpt>
      <trkpt lat="49.61955" lon="4.94397">
        <ele>202.49</ele>
        <time>2018-08-20T09:56:12Z</time>
      </trkpt>
      <trkpt lat="49.61965" lon="4.9442">
        <ele>202.01</ele>
        <time>2018-08-20T09:56:28Z</time>
      </trkpt>
      <trkpt lat="49.61976" lon="4.94445">
        <ele>203.94</ele>
        <time>2018-08-20T09:56:46Z</time>
      </trkpt>
      <trkpt lat="49.61981" lon="4.94454">
        <ele>203.94</ele>
        <time>2018-08-20T09:56:52Z</time>
      </trkpt>
      <trkpt lat="49.61992" lon="4.94479">
        <ele>201.05</ele>
        <time>2018-08-20T09:57:08Z</time>
      </trkpt>
      <trkpt lat="49.62003" lon="4.94506">
        <ele>198.17</ele>
        <time>2018-08-20T09:57:28Z</time>
      </trkpt>
      <trkpt lat="49.62004" lon="4.94514">
        <ele>199.13</ele>
        <time>2018-08-20T09:57:34Z</time>
      </trkpt>
      <trkpt lat="49.62008" lon="4.94534">
        <ele>200.09</ele>
        <time>2018-08-20T09:57:44Z</time>
      </trkpt>
      <trkpt lat="49.62016" lon="4.94561">
        <ele>199.13</ele>
        <time>2018-08-20T09:58:00Z</time>
      </trkpt>
      <trkpt lat="49.62023" lon="4.94588">
        <ele>199.13</ele>
        <time>2018-08-20T09:58:20Z</time>
      </trkpt>
      <trkpt lat="49.62032" lon="4.94621">
        <ele>202.49</ele>
        <time>2018-08-20T09:58:37Z</time>
      </trkpt>
      <trkpt lat="49.62037" lon="4.94637">
        <ele>202.49</ele>
        <time>2018-08-20T09:58:47Z</time>
      </trkpt>
      <trkpt lat="49.62046" lon="4.94664">
        <ele>205.38</ele>
        <time>2018-08-20T09:59:04Z</time>
      </trkpt>
      <trkpt lat="49.62058" lon="4.94689">
        <ele>203.94</ele>
        <time>2018-08-20T09:59:22Z</time>
      </trkpt>
      <trkpt lat="49.62073" lon="4.94715">
        <ele>206.82</ele>
        <time>2018-08-20T09:59:41Z</time>
      </trkpt>
      <trkpt lat="49.62091" lon="4.94747">
        <ele>205.38</ele>
        <time>2018-08-20T10:00:00Z</time>
      </trkpt>
      <trkpt lat="49.62106" lon="4.94773">
        <ele>205.38</ele>
        <time>2018-08-20T10:00:18Z</time>
      </trkpt>
      <trkpt lat="49.62118" lon="4.94801">
        <ele>204.9</ele>
        <time>2018-08-20T10:00:39Z</time>
      </trkpt>
      <trkpt lat="49.62126" lon="4.94833">
        <ele>208.74</ele>
        <time>2018-08-20T10:00:59Z</time>
      </trkpt>
      <trkpt lat="49.62135" lon="4.94874">
        <ele>210.67</ele>
        <time>2018-08-20T10:01:20Z</time>
      </trkpt>
      <trkpt lat="49.6214" lon="4.94905">
        <ele>210.19</ele>
        <time>2018-08-20T10:01:37Z</time>
      </trkpt>
      <trkpt lat="49.62147" lon="4.94934">
        <ele>209.7</ele>
        <time>2018-08-20T10:01:55Z</time>
      </trkpt>
      <trkpt lat="49.62153" lon="4.94964">
        <ele>210.67</ele>
        <time>2018-08-20T10:02:15Z</time>
      </trkpt>
      <trkpt lat="49.62154" lon="4.94972">
        <ele>211.15</ele>
        <time>2018-08-20T10:02:19Z</time>
      </trkpt>
      <trkpt lat="49.62161" lon="4.95004">
        <ele>210.19</ele>
        <time>2018-08-20T10:02:35Z</time>
      </trkpt>
      <trkpt lat="49.62165" lon="4.95028">
        <ele>206.34</ele>
        <time>2018-08-20T10:02:50Z</time>
      </trkpt>
      <trkpt lat="49.62171" lon="4.95059">
        <ele>202.98</ele>
        <time>2018-08-20T10:03:08Z</time>
      </trkpt>
      <trkpt lat="49.62177" lon="4.95088">
        <ele>196.25</ele>
        <time>2018-08-20T10:03:26Z</time>
      </trkpt>
      <trkpt lat="49.62183" lon="4.95114">
        <ele>193.84</ele>
        <time>2018-08-20T10:03:42Z</time>
      </trkpt>
      <trkpt lat="49.62189" lon="4.9514">
        <ele>194.8</ele>
        <time>2018-08-20T10:04:00Z</time>
      </trkpt>
      <trkpt lat="49.62199" lon="4.95165">
        <ele>190.48</ele>
        <time>2018-08-20T10:04:17Z</time>
      </trkpt>
      <trkpt lat="49.62208" lon="4.95184">
        <ele>183.75</ele>
        <time>2018-08-20T10:04:34Z</time>
      </trkpt>
      <trkpt lat="49.62212" lon="4.95203">
        <ele>183.27</ele>
        <time>2018-08-20T10:04:48Z</time>
      </trkpt>
      <trkpt lat="49.62221" lon="4.95231">
        <ele>185.67</ele>
        <time>2018-08-20T10:05:05Z</time>
      </trkpt>
      <trkpt lat="49.62225" lon="4.95249">
        <ele>184.23</ele>
        <time>2018-08-20T10:05:18Z</time>
      </trkpt>
      <trkpt lat="49.62224" lon="4.95255">
        <ele>185.19</ele>
        <time>2018-08-20T10:05:32Z</time>
      </trkpt>
      <trkpt lat="49.62223" lon="4.95255">
        <ele>188.56</ele>
        <time>2018-08-20T10:05:47Z</time>
      </trkpt>
      <trkpt lat="49.62223" lon="4.95255">
        <ele>189.52</ele>
        <time>2018-08-20T10:06:12Z</time>
      </trkpt>
      <trkpt lat="49.62223" lon="4.95255">
        <ele>189.52</ele>
        <time>2018-08-20T10:06:38Z</time>
      </trkpt>
      <trkpt lat="49.62223" lon="4.95255">
        <ele>189.52</ele>
        <time>2018-08-20T10:07:05Z</time>
      </trkpt>
      <trkpt lat="49.62223" lon="4.95254">
        <ele>190</ele>
        <time>2018-08-20T10:07:32Z</time>
      </trkpt>
      <trkpt lat="49.62223" lon="4.95255">
        <ele>190</ele>
        <time>2018-08-20T10:08:02Z</time>
      </trkpt>
      <trkpt lat="49.62223" lon="4.95254">
        <ele>190.48</ele>
        <time>2018-08-20T10:08:30Z</time>
      </trkpt>
      <trkpt lat="49.62222" lon="4.95254">
        <ele>190.96</ele>
        <time>2018-08-20T10:08:54Z</time>
      </trkpt>
      <trkpt lat="49.62223" lon="4.95251">
        <ele>190.96</ele>
        <time>2018-08-20T10:09:22Z</time>
      </trkpt>
      <trkpt lat="49.62223" lon="4.95247">
        <ele>191.44</ele>
        <time>2018-08-20T10:09:53Z</time>
      </trkpt>
      <trkpt lat="49.62224" lon="4.95236">
        <ele>194.32</ele>
        <time>2018-08-20T10:10:19Z</time>
      </trkpt>
      <trkpt lat="49.62227" lon="4.95229">
        <ele>199.61</ele>
        <time>2018-08-20T10:10:53Z</time>
      </trkpt>
      <trkpt lat="49.62218" lon="4.95236">
        <ele>203.46</ele>
        <time>2018-08-20T10:11:19Z</time>
      </trkpt>
      <trkpt lat="49.62222" lon="4.95249">
        <ele>201.05</ele>
        <time>2018-08-20T10:11:42Z</time>
      </trkpt>
      <trkpt lat="49.62222" lon="4.95251">
        <ele>199.13</ele>
        <time>2018-08-20T10:12:06Z</time>
      </trkpt>
      <trkpt lat="49.62222" lon="4.9525">
        <ele>199.61</ele>
        <time>2018-08-20T10:12:38Z</time>
      </trkpt>
      <trkpt lat="49.62222" lon="4.9525">
        <ele>199.61</ele>
        <time>2018-08-20T10:13:09Z</time>
      </trkpt>
      <trkpt lat="49.62222" lon="4.95251">
        <ele>199.13</ele>
        <time>2018-08-20T10:13:36Z</time>
      </trkpt>
      <trkpt lat="49.62222" lon="4.95251">
        <ele>198.65</ele>
        <time>2018-08-20T10:13:59Z</time>
      </trkpt>
      <trkpt lat="49.62222" lon="4.95252">
        <ele>198.65</ele>
        <time>2018-08-20T10:14:21Z</time>
      </trkpt>
      <trkpt lat="49.62221" lon="4.95252">
        <ele>197.69</ele>
        <time>2018-08-20T10:14:51Z</time>
      </trkpt>
      <trkpt lat="49.62222" lon="4.95254">
        <ele>197.21</ele>
        <time>2018-08-20T10:15:10Z</time>
      </trkpt>
      <trkpt lat="49.62229" lon="4.95257">
        <ele>197.21</ele>
        <time>2018-08-20T10:15:21Z</time>
      </trkpt>
      <trkpt lat="49.62237" lon="4.9527">
        <ele>198.17</ele>
        <time>2018-08-20T10:15:34Z</time>
      </trkpt>
      <trkpt lat="49.62245" lon="4.95294">
        <ele>196.25</ele>
        <time>2018-08-20T10:15:50Z</time>
      </trkpt>
      <trkpt lat="49.62252" lon="4.95316">
        <ele>196.73</ele>
        <time>2018-08-20T10:16:07Z</time>
      </trkpt>
      <trkpt lat="49.62258" lon="4.95335">
        <ele>197.69</ele>
        <time>2018-08-20T10:16:20Z</time>
      </trkpt>
      <trkpt lat="49.62267" lon="4.95362">
        <ele>198.17</ele>
        <time>2018-08-20T10:16:36Z</time>
      </trkpt>
      <trkpt lat="49.62278" lon="4.95391">
        <ele>200.09</ele>
        <time>2018-08-20T10:16:55Z</time>
      </trkpt>
      <trkpt lat="49.6228" lon="4.95395">
        <ele>200.09</ele>
        <time>2018-08-20T10:16:58Z</time>
      </trkpt>
      <trkpt lat="49.62289" lon="4.95421">
        <ele>199.61</ele>
        <time>2018-08-20T10:17:15Z</time>
      </trkpt>
      <trkpt lat="49.62297" lon="4.95448">
        <ele>199.13</ele>
        <time>2018-08-20T10:17:31Z</time>
      </trkpt>
      <trkpt lat="49.62303" lon="4.95467">
        <ele>201.53</ele>
        <time>2018-08-20T10:17:43Z</time>
      </trkpt>
      <trkpt lat="49.62309" lon="4.95495">
        <ele>203.46</ele>
        <time>2018-08-20T10:17:59Z</time>
      </trkpt>
      <trkpt lat="49.62314" lon="4.95511">
        <ele>205.38</ele>
        <time>2018-08-20T10:18:10Z</time>
      </trkpt>
      <trkpt lat="49.6232" lon="4.95545">
        <ele>205.38</ele>
        <time>2018-08-20T10:18:29Z</time>
      </trkpt>
      <trkpt lat="49.62326" lon="4.95579">
        <ele>202.98</ele>
        <time>2018-08-20T10:18:48Z</time>
      </trkpt>
      <trkpt lat="49.62332" lon="4.95603">
        <ele>205.38</ele>
        <time>2018-08-20T10:19:05Z</time>
      </trkpt>
      <trkpt lat="49.62336" lon="4.95627">
        <ele>204.9</ele>
        <time>2018-08-20T10:19:20Z</time>
      </trkpt>
      <trkpt lat="49.62337" lon="4.95649">
        <ele>203.46</ele>
        <time>2018-08-20T10:19:34Z</time>
      </trkpt>
      <trkpt lat="49.62339" lon="4.95659">
        <ele>202.49</ele>
        <time>2018-08-20T10:19:39Z</time>
      </trkpt>
      <trkpt lat="49.62344" lon="4.95687">
        <ele>196.25</ele>
        <time>2018-08-20T10:19:58Z</time>
      </trkpt>
      <trkpt lat="49.62347" lon="4.95714">
        <ele>195.28</ele>
        <time>2018-08-20T10:20:13Z</time>
      </trkpt>
      <trkpt lat="49.62347" lon="4.95719">
        <ele>195.28</ele>
        <time>2018-08-20T10:20:16Z</time>
      </trkpt>
      <trkpt lat="49.62349" lon="4.95747">
        <ele>193.84</ele>
        <time>2018-08-20T10:20:31Z</time>
      </trkpt>
      <trkpt lat="49.62356" lon="4.95768">
        <ele>192.4</ele>
        <time>2018-08-20T10:20:45Z</time>
      </trkpt>
      <trkpt lat="49.62356" lon="4.95783">
        <ele>190</ele>
        <time>2018-08-20T10:20:56Z</time>
      </trkpt>
      <trkpt lat="49.62352" lon="4.95814">
        <ele>187.59</ele>
        <time>2018-08-20T10:21:15Z</time>
      </trkpt>
      <trkpt lat="49.62349" lon="4.95839">
        <ele>184.71</ele>
        <time>2018-08-20T10:21:29Z</time>
      </trkpt>
      <trkpt lat="49.62343" lon="4.95868">
        <ele>182.31</ele>
        <time>2018-08-20T10:21:45Z</time>
      </trkpt>
      <trkpt lat="49.62352" lon="4.95894">
        <ele>183.27</ele>
        <time>2018-08-20T10:22:01Z</time>
      </trkpt>
      <trkpt lat="49.62358" lon="4.95914">
        <ele>186.15</ele>
        <time>2018-08-20T10:22:14Z</time>
      </trkpt>
      <trkpt lat="49.62361" lon="4.9593">
        <ele>187.11</ele>
        <time>2018-08-20T10:22:22Z</time>
      </trkpt>
      <trkpt lat="49.62363" lon="4.95945">
        <ele>189.52</ele>
        <time>2018-08-20T10:22:32Z</time>
      </trkpt>
      <trkpt lat="49.62368" lon="4.95974">
        <ele>190.48</ele>
        <time>2018-08-20T10:22:48Z</time>
      </trkpt>
      <trkpt lat="49.62371" lon="4.95983">
        <ele>191.44</ele>
        <time>2018-08-20T10:22:55Z</time>
      </trkpt>
      <trkpt lat="49.62377" lon="4.96008">
        <ele>192.4</ele>
        <time>2018-08-20T10:23:09Z</time>
      </trkpt>
      <trkpt lat="49.62388" lon="4.96042">
        <ele>196.73</ele>
        <time>2018-08-20T10:23:29Z</time>
      </trkpt>
      <trkpt lat="49.62401" lon="4.9606">
        <ele>198.65</ele>
        <time>2018-08-20T10:23:45Z</time>
      </trkpt>
      <trkpt lat="49.62416" lon="4.9607">
        <ele>199.61</ele>
        <time>2018-08-20T10:24:01Z</time>
      </trkpt>
      <trkpt lat="49.62435" lon="4.96082">
        <ele>200.09</ele>
        <time>2018-08-20T10:24:19Z</time>
      </trkpt>
      <trkpt lat="49.6245" lon="4.96092">
        <ele>201.05</ele>
        <time>2018-08-20T10:24:33Z</time>
      </trkpt>
      <trkpt lat="49.62463" lon="4.96097">
        <ele>202.01</ele>
        <time>2018-08-20T10:24:44Z</time>
      </trkpt>
      <trkpt lat="49.62467" lon="4.96101">
        <ele>203.46</ele>
        <time>2018-08-20T10:24:48Z</time>
      </trkpt>
      <trkpt lat="49.62484" lon="4.96107">
        <ele>206.34</ele>
        <time>2018-08-20T10:25:06Z</time>
      </trkpt>
      <trkpt lat="49.62495" lon="4.96109">
        <ele>206.34</ele>
        <time>2018-08-20T10:25:19Z</time>
      </trkpt>
      <trkpt lat="49.62497" lon="4.9611">
        <ele>206.34</ele>
        <time>2018-08-20T10:25:21Z</time>
      </trkpt>
      <trkpt lat="49.62507" lon="4.96112">
        <ele>206.82</ele>
        <time>2018-08-20T10:25:31Z</time>
      </trkpt>
      <trkpt lat="49.62526" lon="4.9611">
        <ele>209.7</ele>
        <time>2018-08-20T10:25:48Z</time>
      </trkpt>
      <trkpt lat="49.62548" lon="4.96107">
        <ele>212.11</ele>
        <time>2018-08-20T10:26:05Z</time>
      </trkpt>
      <trkpt lat="49.6257" lon="4.96099">
        <ele>212.59</ele>
        <time>2018-08-20T10:26:21Z</time>
      </trkpt>
      <trkpt lat="49.62592" lon="4.96094">
        <ele>209.7</ele>
        <time>2018-08-20T10:26:39Z</time>
      </trkpt>
      <trkpt lat="49.62613" lon="4.96099">
        <ele>205.86</ele>
        <time>2018-08-20T10:26:59Z</time>
      </trkpt>
      <trkpt lat="49.62616" lon="4.96101">
        <ele>204.42</ele>
        <time>2018-08-20T10:27:02Z</time>
      </trkpt>
      <trkpt lat="49.62628" lon="4.96112">
        <ele>199.13</ele>
        <time>2018-08-20T10:27:17Z</time>
      </trkpt>
      <trkpt lat="49.62639" lon="4.96124">
        <ele>195.77</ele>
        <time>2018-08-20T10:27:33Z</time>
      </trkpt>
      <trkpt lat="49.62652" lon="4.9614">
        <ele>192.4</ele>
        <time>2018-08-20T10:27:52Z</time>
      </trkpt>
      <trkpt lat="49.62664" lon="4.96156">
        <ele>190</ele>
        <time>2018-08-20T10:28:07Z</time>
      </trkpt>
      <trkpt lat="49.6268" lon="4.96178">
        <ele>186.63</ele>
        <time>2018-08-20T10:28:23Z</time>
      </trkpt>
      <trkpt lat="49.62682" lon="4.96182">
        <ele>186.63</ele>
        <time>2018-08-20T10:28:27Z</time>
      </trkpt>
      <trkpt lat="49.6269" lon="4.96203">
        <ele>187.11</ele>
        <time>2018-08-20T10:28:40Z</time>
      </trkpt>
      <trkpt lat="49.62694" lon="4.9621">
        <ele>188.08</ele>
        <time>2018-08-20T10:28:45Z</time>
      </trkpt>
      <trkpt lat="49.62711" lon="4.96222">
        <ele>184.71</ele>
        <time>2018-08-20T10:29:01Z</time>
      </trkpt>
      <trkpt lat="49.62733" lon="4.96239">
        <ele>182.31</ele>
        <time>2018-08-20T10:29:22Z</time>
      </trkpt>
      <trkpt lat="49.62749" lon="4.96254">
        <ele>182.31</ele>
        <time>2018-08-20T10:29:37Z</time>
      </trkpt>
      <trkpt lat="49.62771" lon="4.96271">
        <ele>179.9</ele>
        <time>2018-08-20T10:29:59Z</time>
      </trkpt>
      <trkpt lat="49.62792" lon="4.96281">
        <ele>176.06</ele>
        <time>2018-08-20T10:30:17Z</time>
      </trkpt>
      <trkpt lat="49.62798" lon="4.96286">
        <ele>176.54</ele>
        <time>2018-08-20T10:30:25Z</time>
      </trkpt>
      <trkpt lat="49.62815" lon="4.96305">
        <ele>178.94</ele>
        <time>2018-08-20T10:30:43Z</time>
      </trkpt>
      <trkpt lat="49.62828" lon="4.96327">
        <ele>185.67</ele>
        <time>2018-08-20T10:31:00Z</time>
      </trkpt>
      <trkpt lat="49.62844" lon="4.96351">
        <ele>189.52</ele>
        <time>2018-08-20T10:31:19Z</time>
      </trkpt>
      <trkpt lat="49.62857" lon="4.96375">
        <ele>189.04</ele>
        <time>2018-08-20T10:31:37Z</time>
      </trkpt>
      <trkpt lat="49.62868" lon="4.96391">
        <ele>192.4</ele>
        <time>2018-08-20T10:31:52Z</time>
      </trkpt>
      <trkpt lat="49.6288" lon="4.96408">
        <ele>196.25</ele>
        <time>2018-08-20T10:32:09Z</time>
      </trkpt>
      <trkpt lat="49.62895" lon="4.96423">
        <ele>193.36</ele>
        <time>2018-08-20T10:32:25Z</time>
      </trkpt>
      <trkpt lat="49.62908" lon="4.96446">
        <ele>191.44</ele>
        <time>2018-08-20T10:32:43Z</time>
      </trkpt>
      <trkpt lat="49.62916" lon="4.96466">
        <ele>190.48</ele>
        <time>2018-08-20T10:33:01Z</time>
      </trkpt>
      <trkpt lat="49.62915" lon="4.96488">
        <ele>190.48</ele>
        <time>2018-08-20T10:33:16Z</time>
      </trkpt>
      <trkpt lat="49.6291" lon="4.96503">
        <ele>190</ele>
        <time>2018-08-20T10:33:27Z</time>
      </trkpt>
      <trkpt lat="49.62915" lon="4.96512">
        <ele>190</ele>
        <time>2018-08-20T10:33:39Z</time>
      </trkpt>
      <trkpt lat="49.62927" lon="4.96526">
        <ele>186.63</ele>
        <time>2018-08-20T10:33:51Z</time>
      </trkpt>
      <trkpt lat="49.62941" lon="4.9654">
        <ele>181.83</ele>
        <time>2018-08-20T10:34:09Z</time>
      </trkpt>
      <trkpt lat="49.62959" lon="4.96561">
        <ele>178.94</ele>
        <time>2018-08-20T10:34:30Z</time>
      </trkpt>
      <trkpt lat="49.62976" lon="4.96576">
        <ele>180.87</ele>
        <time>2018-08-20T10:34:48Z</time>
      </trkpt>
      <trkpt lat="49.62993" lon="4.96589">
        <ele>180.38</ele>
        <time>2018-08-20T10:35:07Z</time>
      </trkpt>
      <trkpt lat="49.63015" lon="4.96608">
        <ele>182.31</ele>
        <time>2018-08-20T10:35:28Z</time>
      </trkpt>
      <trkpt lat="49.63037" lon="4.96626">
        <ele>184.71</ele>
        <time>2018-08-20T10:35:49Z</time>
      </trkpt>
      <trkpt lat="49.63057" lon="4.96647">
        <ele>185.67</ele>
        <time>2018-08-20T10:36:10Z</time>
      </trkpt>
      <trkpt lat="49.63077" lon="4.96666">
        <ele>190</ele>
        <time>2018-08-20T10:36:31Z</time>
      </trkpt>
      <trkpt lat="49.63102" lon="4.96687">
        <ele>190.96</ele>
        <time>2018-08-20T10:36:52Z</time>
      </trkpt>
      <trkpt lat="49.6312" lon="4.96707">
        <ele>193.84</ele>
        <time>2018-08-20T10:37:08Z</time>
      </trkpt>
      <trkpt lat="49.63137" lon="4.96722">
        <ele>197.21</ele>
        <time>2018-08-20T10:37:25Z</time>
      </trkpt>
      <trkpt lat="49.63152" lon="4.96733">
        <ele>197.21</ele>
        <time>2018-08-20T10:37:42Z</time>
      </trkpt>
      <trkpt lat="49.63174" lon="4.96753">
        <ele>196.25</ele>
        <time>2018-08-20T10:38:04Z</time>
      </trkpt>
      <trkpt lat="49.63192" lon="4.96768">
        <ele>198.65</ele>
        <time>2018-08-20T10:38:21Z</time>
      </trkpt>
      <trkpt lat="49.63205" lon="4.96784">
        <ele>197.69</ele>
        <time>2018-08-20T10:38:35Z</time>
      </trkpt>
      <trkpt lat="49.6322" lon="4.96802">
        <ele>193.36</ele>
        <time>2018-08-20T10:38:52Z</time>
      </trkpt>
      <trkpt lat="49.63234" lon="4.96823">
        <ele>191.44</ele>
        <time>2018-08-20T10:39:10Z</time>
      </trkpt>
      <trkpt lat="49.63243" lon="4.9684">
        <ele>190.96</ele>
        <time>2018-08-20T10:39:24Z</time>
      </trkpt>
      <trkpt lat="49.63256" lon="4.96864">
        <ele>187.11</ele>
        <time>2018-08-20T10:39:42Z</time>
      </trkpt>
      <trkpt lat="49.63268" lon="4.96892">
        <ele>182.31</ele>
        <time>2018-08-20T10:40:01Z</time>
      </trkpt>
      <trkpt lat="49.63277" lon="4.96924">
        <ele>175.1</ele>
        <time>2018-08-20T10:40:21Z</time>
      </trkpt>
      <trkpt lat="49.63284" lon="4.96946">
        <ele>172.69</ele>
        <time>2018-08-20T10:40:35Z</time>
      </trkpt>
      <trkpt lat="49.6329" lon="4.96974">
        <ele>173.66</ele>
        <time>2018-08-20T10:40:51Z</time>
      </trkpt>
      <trkpt lat="49.63294" lon="4.97">
        <ele>174.14</ele>
        <time>2018-08-20T10:41:06Z</time>
      </trkpt>
      <trkpt lat="49.63301" lon="4.97025">
        <ele>175.1</ele>
        <time>2018-08-20T10:41:23Z</time>
      </trkpt>
      <trkpt lat="49.63303" lon="4.97032">
        <ele>175.58</ele>
        <time>2018-08-20T10:41:28Z</time>
      </trkpt>
      <trkpt lat="49.63309" lon="4.97059">
        <ele>175.1</ele>
        <time>2018-08-20T10:41:44Z</time>
      </trkpt>
      <trkpt lat="49.63316" lon="4.97088">
        <ele>170.77</ele>
        <time>2018-08-20T10:42:02Z</time>
      </trkpt>
      <trkpt lat="49.63323" lon="4.97115">
        <ele>165.96</ele>
        <time>2018-08-20T10:42:16Z</time>
      </trkpt>
      <trkpt lat="49.63329" lon="4.97139">
        <ele>159.72</ele>
        <time>2018-08-20T10:42:32Z</time>
      </trkpt>
      <trkpt lat="49.63337" lon="4.97165">
        <ele>153.47</ele>
        <time>2018-08-20T10:42:49Z</time>
      </trkpt>
      <trkpt lat="49.63343" lon="4.97193">
        <ele>150.1</ele>
        <time>2018-08-20T10:43:05Z</time>
      </trkpt>
      <trkpt lat="49.63352" lon="4.97219">
        <ele>148.66</ele>
        <time>2018-08-20T10:43:20Z</time>
      </trkpt>
      <trkpt lat="49.6336" lon="4.97236">
        <ele>149.62</ele>
        <time>2018-08-20T10:43:33Z</time>
      </trkpt>
      <trkpt lat="49.63376" lon="4.97259">
        <ele>147.7</ele>
        <time>2018-08-20T10:43:51Z</time>
      </trkpt>
      <trkpt lat="49.63388" lon="4.97278">
        <ele>145.78</ele>
        <time>2018-08-20T10:44:07Z</time>
      </trkpt>
      <trkpt lat="49.6339" lon="4.97282">
        <ele>145.3</ele>
        <time>2018-08-20T10:44:10Z</time>
      </trkpt>
      <trkpt lat="49.63394" lon="4.97286">
        <ele>144.34</ele>
        <time>2018-08-20T10:44:14Z</time>
      </trkpt>
      <trkpt lat="49.634" lon="4.97299">
        <ele>143.37</ele>
        <time>2018-08-20T10:44:24Z</time>
      </trkpt>
      <trkpt lat="49.63411" lon="4.97324">
        <ele>145.78</ele>
        <time>2018-08-20T10:44:42Z</time>
      </trkpt>
      <trkpt lat="49.63422" lon="4.97343">
        <ele>146.26</ele>
        <time>2018-08-20T10:44:56Z</time>
      </trkpt>
      <trkpt lat="49.63428" lon="4.97355">
        <ele>145.3</ele>
        <time>2018-08-20T10:45:03Z</time>
      </trkpt>
      <trkpt lat="49.6344" lon="4.97377">
        <ele>142.41</ele>
        <time>2018-08-20T10:45:21Z</time>
      </trkpt>
      <trkpt lat="49.6345" lon="4.97403">
        <ele>149.14</ele>
        <time>2018-08-20T10:45:39Z</time>
      </trkpt>
      <trkpt lat="49.63462" lon="4.97426">
        <ele>152.99</ele>
        <time>2018-08-20T10:45:57Z</time>
      </trkpt>
      <trkpt lat="49.63478" lon="4.97453">
        <ele>155.87</ele>
        <time>2018-08-20T10:46:17Z</time>
      </trkpt>
      <trkpt lat="49.6349" lon="4.97476">
        <ele>158.75</ele>
        <time>2018-08-20T10:46:33Z</time>
      </trkpt>
      <trkpt lat="49.63501" lon="4.97497">
        <ele>160.2</ele>
        <time>2018-08-20T10:46:49Z</time>
      </trkpt>
      <trkpt lat="49.63516" lon="4.97519">
        <ele>160.2</ele>
        <time>2018-08-20T10:47:06Z</time>
      </trkpt>
      <trkpt lat="49.63533" lon="4.97546">
        <ele>162.12</ele>
        <time>2018-08-20T10:47:27Z</time>
      </trkpt>
      <trkpt lat="49.63538" lon="4.97556">
        <ele>161.16</ele>
        <time>2018-08-20T10:47:36Z</time>
      </trkpt>
      <trkpt lat="49.6354" lon="4.97563">
        <ele>161.16</ele>
        <time>2018-08-20T10:47:40Z</time>
      </trkpt>
      <trkpt lat="49.63554" lon="4.97586">
        <ele>161.64</ele>
        <time>2018-08-20T10:47:58Z</time>
      </trkpt>
      <trkpt lat="49.6357" lon="4.97609">
        <ele>162.12</ele>
        <time>2018-08-20T10:48:16Z</time>
      </trkpt>
      <trkpt lat="49.63584" lon="4.97629">
        <ele>161.16</ele>
        <time>2018-08-20T10:48:35Z</time>
      </trkpt>
      <trkpt lat="49.63597" lon="4.97641">
        <ele>159.24</ele>
        <time>2018-08-20T10:48:51Z</time>
      </trkpt>
      <trkpt lat="49.636" lon="4.9765">
        <ele>158.75</ele>
        <time>2018-08-20T10:48:57Z</time>
      </trkpt>
      <trkpt lat="49.63592" lon="4.97674">
        <ele>158.75</ele>
        <time>2018-08-20T10:49:14Z</time>
      </trkpt>
      <trkpt lat="49.63591" lon="4.97674">
        <ele>159.24</ele>
        <time>2018-08-20T10:49:15Z</time>
      </trkpt>
      <trkpt lat="49.63583" lon="4.97683">
        <ele>161.64</ele>
        <time>2018-08-20T10:49:23Z</time>
      </trkpt>
      <trkpt lat="49.63568" lon="4.97697">
        <ele>165</ele>
        <time>2018-08-20T10:49:39Z</time>
      </trkpt>
      <trkpt lat="49.6355" lon="4.97716">
        <ele>172.69</ele>
        <time>2018-08-20T10:49:59Z</time>
      </trkpt>
      <trkpt lat="49.63537" lon="4.97741">
        <ele>177.02</ele>
        <time>2018-08-20T10:50:16Z</time>
      </trkpt>
      <trkpt lat="49.63528" lon="4.97764">
        <ele>177.98</ele>
        <time>2018-08-20T10:50:32Z</time>
      </trkpt>
      <trkpt lat="49.63516" lon="4.97781">
        <ele>174.62</ele>
        <time>2018-08-20T10:50:47Z</time>
      </trkpt>
      <trkpt lat="49.635" lon="4.97801">
        <ele>170.77</ele>
        <time>2018-08-20T10:51:05Z</time>
      </trkpt>
      <trkpt lat="49.63484" lon="4.97822">
        <ele>169.81</ele>
        <time>2018-08-20T10:51:24Z</time>
      </trkpt>
      <trkpt lat="49.63481" lon="4.97828">
        <ele>169.81</ele>
        <time>2018-08-20T10:51:29Z</time>
      </trkpt>
      <trkpt lat="49.63469" lon="4.9785">
        <ele>168.85</ele>
        <time>2018-08-20T10:51:44Z</time>
      </trkpt>
      <trkpt lat="49.63453" lon="4.97873">
        <ele>170.29</ele>
        <time>2018-08-20T10:52:02Z</time>
      </trkpt>
      <trkpt lat="49.6345" lon="4.97878">
        <ele>169.81</ele>
        <time>2018-08-20T10:52:07Z</time>
      </trkpt>
      <trkpt lat="49.63444" lon="4.97882">
        <ele>169.81</ele>
        <time>2018-08-20T10:52:12Z</time>
      </trkpt>
      <trkpt lat="49.63426" lon="4.97898">
        <ele>171.25</ele>
        <time>2018-08-20T10:52:31Z</time>
      </trkpt>
      <trkpt lat="49.63407" lon="4.9791">
        <ele>171.25</ele>
        <time>2018-08-20T10:52:49Z</time>
      </trkpt>
      <trkpt lat="49.63389" lon="4.9793">
        <ele>170.29</ele>
        <time>2018-08-20T10:53:08Z</time>
      </trkpt>
      <trkpt lat="49.63387" lon="4.97953">
        <ele>170.77</ele>
        <time>2018-08-20T10:53:24Z</time>
      </trkpt>
      <trkpt lat="49.63399" lon="4.97973">
        <ele>168.37</ele>
        <time>2018-08-20T10:53:40Z</time>
      </trkpt>
      <trkpt lat="49.63407" lon="4.97992">
        <ele>166.45</ele>
        <time>2018-08-20T10:53:54Z</time>
      </trkpt>
      <trkpt lat="49.6341" lon="4.97996">
        <ele>166.45</ele>
        <time>2018-08-20T10:54:03Z</time>
      </trkpt>
      <trkpt lat="49.63412" lon="4.98">
        <ele>166.45</ele>
        <time>2018-08-20T10:54:06Z</time>
      </trkpt>
      <trkpt lat="49.63422" lon="4.98015">
        <ele>169.33</ele>
        <time>2018-08-20T10:54:20Z</time>
      </trkpt>
      <trkpt lat="49.6344" lon="4.98035">
        <ele>173.66</ele>
        <time>2018-08-20T10:54:39Z</time>
      </trkpt>
      <trkpt lat="49.63443" lon="4.98037">
        <ele>176.06</ele>
        <time>2018-08-20T10:54:43Z</time>
      </trkpt>
    </trkseg>
  </trk>
</gpx>